<?xml version="1.0" encoding="UTF-8" standalone="no" ?>
<gpx xmlns="http://www.topografix.com/GPX/1/1" xmlns:xsi="http://www.w3.org/2001/XMLSchema-instance" xsi:schemaLocation="http://www.topografix.com/GPX/1/1 http://www.topografix.com/GPX/1/1/gpx.xsd" version="1.1" creator="VisuGPX - https://www.visugpx.com">
  <metadata>
    <name>Bellou (Livarot)</name>
  </metadata>
  <trk>
    <name><![CDATA[Bellou (Livarot)]]></name>
    <trkseg>
      <trkpt lat="48.98305" lon="0.22588">
        <ele>199.61</ele>
        <time>2017-10-28T09:40:36Z</time>
      </trkpt>
      <trkpt lat="48.98308" lon="0.226">
        <ele>199.61</ele>
        <time>2017-10-28T09:41:29Z</time>
      </trkpt>
      <trkpt lat="48.98303" lon="0.22613">
        <ele>199.61</ele>
        <time>2017-10-28T09:41:41Z</time>
      </trkpt>
      <trkpt lat="48.98301" lon="0.22627">
        <ele>199.13</ele>
        <time>2017-10-28T09:41:55Z</time>
      </trkpt>
      <trkpt lat="48.98292" lon="0.2263">
        <ele>199.13</ele>
        <time>2017-10-28T09:42:07Z</time>
      </trkpt>
      <trkpt lat="48.98282" lon="0.22631">
        <ele>198.65</ele>
        <time>2017-10-28T09:42:17Z</time>
      </trkpt>
      <trkpt lat="48.98273" lon="0.22635">
        <ele>198.65</ele>
        <time>2017-10-28T09:42:26Z</time>
      </trkpt>
      <trkpt lat="48.98264" lon="0.2264">
        <ele>198.65</ele>
        <time>2017-10-28T09:42:36Z</time>
      </trkpt>
      <trkpt lat="48.98255" lon="0.22649">
        <ele>198.65</ele>
        <time>2017-10-28T09:42:45Z</time>
      </trkpt>
      <trkpt lat="48.98247" lon="0.22662">
        <ele>198.65</ele>
        <time>2017-10-28T09:42:55Z</time>
      </trkpt>
      <trkpt lat="48.98241" lon="0.22674">
        <ele>198.65</ele>
        <time>2017-10-28T09:43:04Z</time>
      </trkpt>
      <trkpt lat="48.98234" lon="0.22685">
        <ele>200.09</ele>
        <time>2017-10-28T09:43:13Z</time>
      </trkpt>
      <trkpt lat="48.98226" lon="0.22698">
        <ele>200.09</ele>
        <time>2017-10-28T09:43:24Z</time>
      </trkpt>
      <trkpt lat="48.98218" lon="0.22709">
        <ele>201.05</ele>
        <time>2017-10-28T09:43:33Z</time>
      </trkpt>
      <trkpt lat="48.98208" lon="0.22717">
        <ele>201.05</ele>
        <time>2017-10-28T09:43:43Z</time>
      </trkpt>
      <trkpt lat="48.98201" lon="0.22726">
        <ele>201.05</ele>
        <time>2017-10-28T09:43:51Z</time>
      </trkpt>
      <trkpt lat="48.98194" lon="0.22738">
        <ele>201.05</ele>
        <time>2017-10-28T09:44:00Z</time>
      </trkpt>
      <trkpt lat="48.98185" lon="0.22742">
        <ele>199.61</ele>
        <time>2017-10-28T09:44:10Z</time>
      </trkpt>
      <trkpt lat="48.98176" lon="0.22734">
        <ele>199.61</ele>
        <time>2017-10-28T09:44:20Z</time>
      </trkpt>
      <trkpt lat="48.9817" lon="0.22721">
        <ele>199.61</ele>
        <time>2017-10-28T09:44:29Z</time>
      </trkpt>
      <trkpt lat="48.98167" lon="0.22706">
        <ele>199.61</ele>
        <time>2017-10-28T09:44:39Z</time>
      </trkpt>
      <trkpt lat="48.98163" lon="0.22692">
        <ele>199.61</ele>
        <time>2017-10-28T09:44:48Z</time>
      </trkpt>
      <trkpt lat="48.98159" lon="0.22676">
        <ele>200.09</ele>
        <time>2017-10-28T09:44:58Z</time>
      </trkpt>
      <trkpt lat="48.98157" lon="0.22661">
        <ele>199.61</ele>
        <time>2017-10-28T09:45:08Z</time>
      </trkpt>
      <trkpt lat="48.98155" lon="0.22646">
        <ele>199.61</ele>
        <time>2017-10-28T09:45:17Z</time>
      </trkpt>
      <trkpt lat="48.98151" lon="0.2263">
        <ele>199.61</ele>
        <time>2017-10-28T09:45:27Z</time>
      </trkpt>
      <trkpt lat="48.98149" lon="0.22614">
        <ele>199.61</ele>
        <time>2017-10-28T09:45:37Z</time>
      </trkpt>
      <trkpt lat="48.98146" lon="0.22595">
        <ele>199.13</ele>
        <time>2017-10-28T09:45:49Z</time>
      </trkpt>
      <trkpt lat="48.98144" lon="0.22579">
        <ele>199.13</ele>
        <time>2017-10-28T09:46:00Z</time>
      </trkpt>
      <trkpt lat="48.9814" lon="0.22563">
        <ele>198.65</ele>
        <time>2017-10-28T09:46:12Z</time>
      </trkpt>
      <trkpt lat="48.98135" lon="0.22546">
        <ele>198.17</ele>
        <time>2017-10-28T09:46:23Z</time>
      </trkpt>
      <trkpt lat="48.98133" lon="0.22528">
        <ele>197.69</ele>
        <time>2017-10-28T09:46:36Z</time>
      </trkpt>
      <trkpt lat="48.9813" lon="0.22512">
        <ele>197.69</ele>
        <time>2017-10-28T09:46:47Z</time>
      </trkpt>
      <trkpt lat="48.98129" lon="0.22494">
        <ele>197.69</ele>
        <time>2017-10-28T09:46:59Z</time>
      </trkpt>
      <trkpt lat="48.98126" lon="0.22479">
        <ele>197.69</ele>
        <time>2017-10-28T09:47:09Z</time>
      </trkpt>
      <trkpt lat="48.98125" lon="0.22465">
        <ele>197.69</ele>
        <time>2017-10-28T09:47:19Z</time>
      </trkpt>
      <trkpt lat="48.98123" lon="0.22448">
        <ele>197.69</ele>
        <time>2017-10-28T09:47:32Z</time>
      </trkpt>
      <trkpt lat="48.98122" lon="0.2243">
        <ele>197.21</ele>
        <time>2017-10-28T09:47:44Z</time>
      </trkpt>
      <trkpt lat="48.98119" lon="0.22409">
        <ele>196.73</ele>
        <time>2017-10-28T09:47:55Z</time>
      </trkpt>
      <trkpt lat="48.98116" lon="0.22391">
        <ele>196.73</ele>
        <time>2017-10-28T09:48:06Z</time>
      </trkpt>
      <trkpt lat="48.98114" lon="0.22375">
        <ele>196.73</ele>
        <time>2017-10-28T09:48:17Z</time>
      </trkpt>
      <trkpt lat="48.98109" lon="0.22359">
        <ele>196.25</ele>
        <time>2017-10-28T09:48:28Z</time>
      </trkpt>
      <trkpt lat="48.98101" lon="0.22343">
        <ele>196.25</ele>
        <time>2017-10-28T09:48:39Z</time>
      </trkpt>
      <trkpt lat="48.98088" lon="0.2233">
        <ele>195.77</ele>
        <time>2017-10-28T09:48:52Z</time>
      </trkpt>
      <trkpt lat="48.98076" lon="0.22322">
        <ele>195.77</ele>
        <time>2017-10-28T09:49:05Z</time>
      </trkpt>
      <trkpt lat="48.98064" lon="0.22315">
        <ele>195.28</ele>
        <time>2017-10-28T09:49:17Z</time>
      </trkpt>
      <trkpt lat="48.98052" lon="0.22306">
        <ele>194.8</ele>
        <time>2017-10-28T09:49:30Z</time>
      </trkpt>
      <trkpt lat="48.98036" lon="0.22305">
        <ele>193.84</ele>
        <time>2017-10-28T09:49:43Z</time>
      </trkpt>
      <trkpt lat="48.98021" lon="0.22306">
        <ele>193.84</ele>
        <time>2017-10-28T09:49:56Z</time>
      </trkpt>
      <trkpt lat="48.98009" lon="0.22307">
        <ele>193.84</ele>
        <time>2017-10-28T09:50:06Z</time>
      </trkpt>
      <trkpt lat="48.97999" lon="0.22307">
        <ele>193.84</ele>
        <time>2017-10-28T09:50:16Z</time>
      </trkpt>
      <trkpt lat="48.97989" lon="0.22308">
        <ele>193.84</ele>
        <time>2017-10-28T09:50:25Z</time>
      </trkpt>
      <trkpt lat="48.97977" lon="0.22309">
        <ele>193.84</ele>
        <time>2017-10-28T09:50:37Z</time>
      </trkpt>
      <trkpt lat="48.97965" lon="0.22311">
        <ele>193.84</ele>
        <time>2017-10-28T09:50:49Z</time>
      </trkpt>
      <trkpt lat="48.97954" lon="0.22313">
        <ele>193.84</ele>
        <time>2017-10-28T09:51:00Z</time>
      </trkpt>
      <trkpt lat="48.97941" lon="0.22315">
        <ele>193.84</ele>
        <time>2017-10-28T09:51:12Z</time>
      </trkpt>
      <trkpt lat="48.9793" lon="0.22315">
        <ele>193.84</ele>
        <time>2017-10-28T09:51:23Z</time>
      </trkpt>
      <trkpt lat="48.97918" lon="0.2231">
        <ele>193.84</ele>
        <time>2017-10-28T09:51:35Z</time>
      </trkpt>
      <trkpt lat="48.97907" lon="0.22306">
        <ele>194.8</ele>
        <time>2017-10-28T09:51:47Z</time>
      </trkpt>
      <trkpt lat="48.97893" lon="0.22303">
        <ele>194.8</ele>
        <time>2017-10-28T09:52:00Z</time>
      </trkpt>
      <trkpt lat="48.9788" lon="0.22298">
        <ele>194.8</ele>
        <time>2017-10-28T09:52:11Z</time>
      </trkpt>
      <trkpt lat="48.9787" lon="0.22295">
        <ele>194.8</ele>
        <time>2017-10-28T09:52:21Z</time>
      </trkpt>
      <trkpt lat="48.97857" lon="0.22291">
        <ele>194.8</ele>
        <time>2017-10-28T09:52:32Z</time>
      </trkpt>
      <trkpt lat="48.97845" lon="0.22286">
        <ele>194.8</ele>
        <time>2017-10-28T09:52:42Z</time>
      </trkpt>
      <trkpt lat="48.97835" lon="0.22282">
        <ele>194.8</ele>
        <time>2017-10-28T09:52:52Z</time>
      </trkpt>
      <trkpt lat="48.97824" lon="0.22276">
        <ele>194.8</ele>
        <time>2017-10-28T09:53:04Z</time>
      </trkpt>
      <trkpt lat="48.97811" lon="0.22266">
        <ele>194.8</ele>
        <time>2017-10-28T09:53:15Z</time>
      </trkpt>
      <trkpt lat="48.97801" lon="0.22258">
        <ele>194.8</ele>
        <time>2017-10-28T09:53:25Z</time>
      </trkpt>
      <trkpt lat="48.97791" lon="0.22248">
        <ele>194.8</ele>
        <time>2017-10-28T09:53:36Z</time>
      </trkpt>
      <trkpt lat="48.97781" lon="0.22237">
        <ele>194.8</ele>
        <time>2017-10-28T09:53:46Z</time>
      </trkpt>
      <trkpt lat="48.97773" lon="0.22225">
        <ele>193.36</ele>
        <time>2017-10-28T09:53:56Z</time>
      </trkpt>
      <trkpt lat="48.97766" lon="0.22214">
        <ele>193.36</ele>
        <time>2017-10-28T09:54:05Z</time>
      </trkpt>
      <trkpt lat="48.97759" lon="0.22202">
        <ele>192.88</ele>
        <time>2017-10-28T09:54:24Z</time>
      </trkpt>
      <trkpt lat="48.97749" lon="0.22197">
        <ele>192.88</ele>
        <time>2017-10-28T09:54:34Z</time>
      </trkpt>
      <trkpt lat="48.97739" lon="0.22202">
        <ele>192.88</ele>
        <time>2017-10-28T09:54:44Z</time>
      </trkpt>
      <trkpt lat="48.97728" lon="0.22206">
        <ele>192.88</ele>
        <time>2017-10-28T09:54:56Z</time>
      </trkpt>
      <trkpt lat="48.97716" lon="0.2221">
        <ele>192.88</ele>
        <time>2017-10-28T09:55:07Z</time>
      </trkpt>
      <trkpt lat="48.97703" lon="0.22216">
        <ele>193.84</ele>
        <time>2017-10-28T09:55:17Z</time>
      </trkpt>
      <trkpt lat="48.97692" lon="0.22217">
        <ele>193.84</ele>
        <time>2017-10-28T09:55:26Z</time>
      </trkpt>
      <trkpt lat="48.97682" lon="0.22219">
        <ele>193.84</ele>
        <time>2017-10-28T09:55:34Z</time>
      </trkpt>
      <trkpt lat="48.97672" lon="0.22221">
        <ele>193.84</ele>
        <time>2017-10-28T09:55:43Z</time>
      </trkpt>
      <trkpt lat="48.97662" lon="0.22228">
        <ele>194.32</ele>
        <time>2017-10-28T09:55:53Z</time>
      </trkpt>
      <trkpt lat="48.97653" lon="0.22235">
        <ele>194.32</ele>
        <time>2017-10-28T09:56:02Z</time>
      </trkpt>
      <trkpt lat="48.97642" lon="0.22238">
        <ele>194.8</ele>
        <time>2017-10-28T09:56:12Z</time>
      </trkpt>
      <trkpt lat="48.97631" lon="0.22243">
        <ele>195.28</ele>
        <time>2017-10-28T09:56:22Z</time>
      </trkpt>
      <trkpt lat="48.97619" lon="0.22246">
        <ele>195.28</ele>
        <time>2017-10-28T09:56:31Z</time>
      </trkpt>
      <trkpt lat="48.97608" lon="0.22248">
        <ele>195.28</ele>
        <time>2017-10-28T09:56:48Z</time>
      </trkpt>
      <trkpt lat="48.97596" lon="0.22251">
        <ele>195.28</ele>
        <time>2017-10-28T09:57:02Z</time>
      </trkpt>
      <trkpt lat="48.97585" lon="0.22255">
        <ele>195.28</ele>
        <time>2017-10-28T09:57:11Z</time>
      </trkpt>
      <trkpt lat="48.97575" lon="0.22258">
        <ele>195.28</ele>
        <time>2017-10-28T09:57:20Z</time>
      </trkpt>
      <trkpt lat="48.97565" lon="0.2226">
        <ele>195.28</ele>
        <time>2017-10-28T09:57:28Z</time>
      </trkpt>
      <trkpt lat="48.97554" lon="0.22261">
        <ele>194.8</ele>
        <time>2017-10-28T09:57:37Z</time>
      </trkpt>
      <trkpt lat="48.97543" lon="0.22259">
        <ele>194.8</ele>
        <time>2017-10-28T09:57:47Z</time>
      </trkpt>
      <trkpt lat="48.97531" lon="0.22257">
        <ele>194.8</ele>
        <time>2017-10-28T09:57:57Z</time>
      </trkpt>
      <trkpt lat="48.97518" lon="0.22254">
        <ele>194.8</ele>
        <time>2017-10-28T09:58:09Z</time>
      </trkpt>
      <trkpt lat="48.97506" lon="0.22249">
        <ele>194.8</ele>
        <time>2017-10-28T09:58:19Z</time>
      </trkpt>
      <trkpt lat="48.97495" lon="0.22244">
        <ele>194.8</ele>
        <time>2017-10-28T09:58:29Z</time>
      </trkpt>
      <trkpt lat="48.97483" lon="0.2224">
        <ele>194.8</ele>
        <time>2017-10-28T09:58:39Z</time>
      </trkpt>
      <trkpt lat="48.97471" lon="0.22235">
        <ele>194.8</ele>
        <time>2017-10-28T09:58:50Z</time>
      </trkpt>
      <trkpt lat="48.9746" lon="0.22229">
        <ele>194.8</ele>
        <time>2017-10-28T09:58:59Z</time>
      </trkpt>
      <trkpt lat="48.97451" lon="0.22224">
        <ele>194.8</ele>
        <time>2017-10-28T09:59:07Z</time>
      </trkpt>
      <trkpt lat="48.9744" lon="0.22218">
        <ele>194.8</ele>
        <time>2017-10-28T09:59:16Z</time>
      </trkpt>
      <trkpt lat="48.97428" lon="0.22212">
        <ele>194.8</ele>
        <time>2017-10-28T09:59:25Z</time>
      </trkpt>
      <trkpt lat="48.97417" lon="0.22207">
        <ele>194.8</ele>
        <time>2017-10-28T09:59:34Z</time>
      </trkpt>
      <trkpt lat="48.97405" lon="0.22202">
        <ele>194.8</ele>
        <time>2017-10-28T09:59:44Z</time>
      </trkpt>
      <trkpt lat="48.97393" lon="0.222">
        <ele>194.8</ele>
        <time>2017-10-28T09:59:54Z</time>
      </trkpt>
      <trkpt lat="48.97383" lon="0.22198">
        <ele>194.8</ele>
        <time>2017-10-28T10:00:05Z</time>
      </trkpt>
      <trkpt lat="48.97372" lon="0.22197">
        <ele>194.8</ele>
        <time>2017-10-28T10:00:16Z</time>
      </trkpt>
      <trkpt lat="48.97359" lon="0.22196">
        <ele>194.8</ele>
        <time>2017-10-28T10:00:27Z</time>
      </trkpt>
      <trkpt lat="48.97348" lon="0.22198">
        <ele>194.8</ele>
        <time>2017-10-28T10:00:36Z</time>
      </trkpt>
      <trkpt lat="48.97337" lon="0.22201">
        <ele>193.36</ele>
        <time>2017-10-28T10:00:45Z</time>
      </trkpt>
      <trkpt lat="48.97325" lon="0.22203">
        <ele>193.36</ele>
        <time>2017-10-28T10:00:55Z</time>
      </trkpt>
      <trkpt lat="48.97314" lon="0.22206">
        <ele>193.36</ele>
        <time>2017-10-28T10:01:04Z</time>
      </trkpt>
      <trkpt lat="48.97303" lon="0.22209">
        <ele>193.36</ele>
        <time>2017-10-28T10:01:14Z</time>
      </trkpt>
      <trkpt lat="48.97293" lon="0.22213">
        <ele>193.36</ele>
        <time>2017-10-28T10:01:23Z</time>
      </trkpt>
      <trkpt lat="48.97283" lon="0.22216">
        <ele>193.36</ele>
        <time>2017-10-28T10:01:33Z</time>
      </trkpt>
      <trkpt lat="48.97272" lon="0.2222">
        <ele>193.36</ele>
        <time>2017-10-28T10:01:45Z</time>
      </trkpt>
      <trkpt lat="48.97261" lon="0.22225">
        <ele>193.36</ele>
        <time>2017-10-28T10:02:02Z</time>
      </trkpt>
      <trkpt lat="48.97249" lon="0.2223">
        <ele>193.36</ele>
        <time>2017-10-28T10:02:13Z</time>
      </trkpt>
      <trkpt lat="48.97235" lon="0.22233">
        <ele>193.36</ele>
        <time>2017-10-28T10:02:25Z</time>
      </trkpt>
      <trkpt lat="48.97224" lon="0.22236">
        <ele>193.36</ele>
        <time>2017-10-28T10:02:35Z</time>
      </trkpt>
      <trkpt lat="48.97208" lon="0.22237">
        <ele>193.36</ele>
        <time>2017-10-28T10:02:54Z</time>
      </trkpt>
      <trkpt lat="48.97199" lon="0.22225">
        <ele>193.36</ele>
        <time>2017-10-28T10:03:11Z</time>
      </trkpt>
      <trkpt lat="48.97182" lon="0.22198">
        <ele>193.84</ele>
        <time>2017-10-28T10:03:40Z</time>
      </trkpt>
      <trkpt lat="48.97172" lon="0.22178">
        <ele>193.84</ele>
        <time>2017-10-28T10:03:55Z</time>
      </trkpt>
      <trkpt lat="48.97161" lon="0.22162">
        <ele>193.84</ele>
        <time>2017-10-28T10:04:11Z</time>
      </trkpt>
      <trkpt lat="48.97153" lon="0.2215">
        <ele>193.84</ele>
        <time>2017-10-28T10:04:23Z</time>
      </trkpt>
      <trkpt lat="48.97142" lon="0.22136">
        <ele>193.84</ele>
        <time>2017-10-28T10:04:39Z</time>
      </trkpt>
      <trkpt lat="48.97132" lon="0.22121">
        <ele>193.36</ele>
        <time>2017-10-28T10:04:51Z</time>
      </trkpt>
      <trkpt lat="48.97121" lon="0.22106">
        <ele>193.36</ele>
        <time>2017-10-28T10:05:07Z</time>
      </trkpt>
      <trkpt lat="48.97111" lon="0.22092">
        <ele>193.36</ele>
        <time>2017-10-28T10:05:19Z</time>
      </trkpt>
      <trkpt lat="48.971" lon="0.22078">
        <ele>193.36</ele>
        <time>2017-10-28T10:05:30Z</time>
      </trkpt>
      <trkpt lat="48.9709" lon="0.22064">
        <ele>193.36</ele>
        <time>2017-10-28T10:05:41Z</time>
      </trkpt>
      <trkpt lat="48.97081" lon="0.22052">
        <ele>193.36</ele>
        <time>2017-10-28T10:05:55Z</time>
      </trkpt>
      <trkpt lat="48.97072" lon="0.2204">
        <ele>193.36</ele>
        <time>2017-10-28T10:06:07Z</time>
      </trkpt>
      <trkpt lat="48.97062" lon="0.22026">
        <ele>193.36</ele>
        <time>2017-10-28T10:06:21Z</time>
      </trkpt>
      <trkpt lat="48.97048" lon="0.22013">
        <ele>193.36</ele>
        <time>2017-10-28T10:06:35Z</time>
      </trkpt>
      <trkpt lat="48.97038" lon="0.21994">
        <ele>193.36</ele>
        <time>2017-10-28T10:06:51Z</time>
      </trkpt>
      <trkpt lat="48.97028" lon="0.21975">
        <ele>193.36</ele>
        <time>2017-10-28T10:07:15Z</time>
      </trkpt>
      <trkpt lat="48.97021" lon="0.21956">
        <ele>193.36</ele>
        <time>2017-10-28T10:07:32Z</time>
      </trkpt>
      <trkpt lat="48.97008" lon="0.21927">
        <ele>192.88</ele>
        <time>2017-10-28T10:08:12Z</time>
      </trkpt>
      <trkpt lat="48.96996" lon="0.21902">
        <ele>192.4</ele>
        <time>2017-10-28T10:08:36Z</time>
      </trkpt>
      <trkpt lat="48.96985" lon="0.21878">
        <ele>192.4</ele>
        <time>2017-10-28T10:08:57Z</time>
      </trkpt>
      <trkpt lat="48.96975" lon="0.21848">
        <ele>191.92</ele>
        <time>2017-10-28T10:09:19Z</time>
      </trkpt>
      <trkpt lat="48.96966" lon="0.21818">
        <ele>191.92</ele>
        <time>2017-10-28T10:09:36Z</time>
      </trkpt>
      <trkpt lat="48.96963" lon="0.21799">
        <ele>191.92</ele>
        <time>2017-10-28T10:09:49Z</time>
      </trkpt>
      <trkpt lat="48.96959" lon="0.21777">
        <ele>191.44</ele>
        <time>2017-10-28T10:10:05Z</time>
      </trkpt>
      <trkpt lat="48.96955" lon="0.21757">
        <ele>191.44</ele>
        <time>2017-10-28T10:10:17Z</time>
      </trkpt>
      <trkpt lat="48.9695" lon="0.21735">
        <ele>191.44</ele>
        <time>2017-10-28T10:10:31Z</time>
      </trkpt>
      <trkpt lat="48.96943" lon="0.21709">
        <ele>191.44</ele>
        <time>2017-10-28T10:10:49Z</time>
      </trkpt>
      <trkpt lat="48.96941" lon="0.21692">
        <ele>191.44</ele>
        <time>2017-10-28T10:11:01Z</time>
      </trkpt>
      <trkpt lat="48.96932" lon="0.21672">
        <ele>192.4</ele>
        <time>2017-10-28T10:13:04Z</time>
      </trkpt>
      <trkpt lat="48.96928" lon="0.21657">
        <ele>192.4</ele>
        <time>2017-10-28T10:13:15Z</time>
      </trkpt>
      <trkpt lat="48.96924" lon="0.21642">
        <ele>191.44</ele>
        <time>2017-10-28T10:13:25Z</time>
      </trkpt>
      <trkpt lat="48.96919" lon="0.21626">
        <ele>191.44</ele>
        <time>2017-10-28T10:13:35Z</time>
      </trkpt>
      <trkpt lat="48.96917" lon="0.21611">
        <ele>190.96</ele>
        <time>2017-10-28T10:13:44Z</time>
      </trkpt>
      <trkpt lat="48.96915" lon="0.21593">
        <ele>190.48</ele>
        <time>2017-10-28T10:13:57Z</time>
      </trkpt>
      <trkpt lat="48.96912" lon="0.21575">
        <ele>190.48</ele>
        <time>2017-10-28T10:14:08Z</time>
      </trkpt>
      <trkpt lat="48.96909" lon="0.21555">
        <ele>190</ele>
        <time>2017-10-28T10:14:21Z</time>
      </trkpt>
      <trkpt lat="48.96908" lon="0.21534">
        <ele>189.52</ele>
        <time>2017-10-28T10:14:32Z</time>
      </trkpt>
      <trkpt lat="48.96909" lon="0.21515">
        <ele>189.04</ele>
        <time>2017-10-28T10:14:45Z</time>
      </trkpt>
      <trkpt lat="48.96913" lon="0.21497">
        <ele>188.08</ele>
        <time>2017-10-28T10:14:59Z</time>
      </trkpt>
      <trkpt lat="48.96917" lon="0.21474">
        <ele>187.11</ele>
        <time>2017-10-28T10:15:13Z</time>
      </trkpt>
      <trkpt lat="48.9692" lon="0.2145">
        <ele>186.15</ele>
        <time>2017-10-28T10:15:30Z</time>
      </trkpt>
      <trkpt lat="48.96923" lon="0.21421">
        <ele>183.75</ele>
        <time>2017-10-28T10:15:52Z</time>
      </trkpt>
      <trkpt lat="48.96925" lon="0.214">
        <ele>182.31</ele>
        <time>2017-10-28T10:16:08Z</time>
      </trkpt>
      <trkpt lat="48.96931" lon="0.21369">
        <ele>179.9</ele>
        <time>2017-10-28T10:16:33Z</time>
      </trkpt>
      <trkpt lat="48.96932" lon="0.21342">
        <ele>177.5</ele>
        <time>2017-10-28T10:16:52Z</time>
      </trkpt>
      <trkpt lat="48.96927" lon="0.21324">
        <ele>176.06</ele>
        <time>2017-10-28T10:17:08Z</time>
      </trkpt>
      <trkpt lat="48.96919" lon="0.21306">
        <ele>175.1</ele>
        <time>2017-10-28T10:17:21Z</time>
      </trkpt>
      <trkpt lat="48.96913" lon="0.21292">
        <ele>174.14</ele>
        <time>2017-10-28T10:17:35Z</time>
      </trkpt>
      <trkpt lat="48.96905" lon="0.21275">
        <ele>174.14</ele>
        <time>2017-10-28T10:17:49Z</time>
      </trkpt>
      <trkpt lat="48.96895" lon="0.21264">
        <ele>175.58</ele>
        <time>2017-10-28T10:18:02Z</time>
      </trkpt>
      <trkpt lat="48.96883" lon="0.21249">
        <ele>176.54</ele>
        <time>2017-10-28T10:18:19Z</time>
      </trkpt>
      <trkpt lat="48.96871" lon="0.2123">
        <ele>178.46</ele>
        <time>2017-10-28T10:18:39Z</time>
      </trkpt>
      <trkpt lat="48.96859" lon="0.21198">
        <ele>182.31</ele>
        <time>2017-10-28T10:19:11Z</time>
      </trkpt>
      <trkpt lat="48.96855" lon="0.2118">
        <ele>183.27</ele>
        <time>2017-10-28T10:19:28Z</time>
      </trkpt>
      <trkpt lat="48.96851" lon="0.21162">
        <ele>184.71</ele>
        <time>2017-10-28T10:19:46Z</time>
      </trkpt>
      <trkpt lat="48.96845" lon="0.2114">
        <ele>185.67</ele>
        <time>2017-10-28T10:19:59Z</time>
      </trkpt>
      <trkpt lat="48.96838" lon="0.21122">
        <ele>186.15</ele>
        <time>2017-10-28T10:20:13Z</time>
      </trkpt>
      <trkpt lat="48.96833" lon="0.21103">
        <ele>186.15</ele>
        <time>2017-10-28T10:20:26Z</time>
      </trkpt>
      <trkpt lat="48.9683" lon="0.21083">
        <ele>186.63</ele>
        <time>2017-10-28T10:20:39Z</time>
      </trkpt>
      <trkpt lat="48.96828" lon="0.21064">
        <ele>187.11</ele>
        <time>2017-10-28T10:20:51Z</time>
      </trkpt>
      <trkpt lat="48.96829" lon="0.21048">
        <ele>187.11</ele>
        <time>2017-10-28T10:21:04Z</time>
      </trkpt>
      <trkpt lat="48.96831" lon="0.2103">
        <ele>187.59</ele>
        <time>2017-10-28T10:21:15Z</time>
      </trkpt>
      <trkpt lat="48.96832" lon="0.21007">
        <ele>187.59</ele>
        <time>2017-10-28T10:21:28Z</time>
      </trkpt>
      <trkpt lat="48.96833" lon="0.20982">
        <ele>188.08</ele>
        <time>2017-10-28T10:21:42Z</time>
      </trkpt>
      <trkpt lat="48.96833" lon="0.20962">
        <ele>188.08</ele>
        <time>2017-10-28T10:21:57Z</time>
      </trkpt>
      <trkpt lat="48.9683" lon="0.2094">
        <ele>188.08</ele>
        <time>2017-10-28T10:22:11Z</time>
      </trkpt>
      <trkpt lat="48.9683" lon="0.20922">
        <ele>188.08</ele>
        <time>2017-10-28T10:22:22Z</time>
      </trkpt>
      <trkpt lat="48.9683" lon="0.20894">
        <ele>188.08</ele>
        <time>2017-10-28T10:22:37Z</time>
      </trkpt>
      <trkpt lat="48.9683" lon="0.2087">
        <ele>188.56</ele>
        <time>2017-10-28T10:22:54Z</time>
      </trkpt>
      <trkpt lat="48.96832" lon="0.20847">
        <ele>188.56</ele>
        <time>2017-10-28T10:23:08Z</time>
      </trkpt>
      <trkpt lat="48.96835" lon="0.20824">
        <ele>189.04</ele>
        <time>2017-10-28T10:23:18Z</time>
      </trkpt>
      <trkpt lat="48.96837" lon="0.20804">
        <ele>189.04</ele>
        <time>2017-10-28T10:23:27Z</time>
      </trkpt>
      <trkpt lat="48.96841" lon="0.2077">
        <ele>189.04</ele>
        <time>2017-10-28T10:23:51Z</time>
      </trkpt>
      <trkpt lat="48.96844" lon="0.20747">
        <ele>189.04</ele>
        <time>2017-10-28T10:24:04Z</time>
      </trkpt>
      <trkpt lat="48.96848" lon="0.20723">
        <ele>189.04</ele>
        <time>2017-10-28T10:24:16Z</time>
      </trkpt>
      <trkpt lat="48.96851" lon="0.20699">
        <ele>189.04</ele>
        <time>2017-10-28T10:24:29Z</time>
      </trkpt>
      <trkpt lat="48.96854" lon="0.20682">
        <ele>189.04</ele>
        <time>2017-10-28T10:24:40Z</time>
      </trkpt>
      <trkpt lat="48.96855" lon="0.20663">
        <ele>189.04</ele>
        <time>2017-10-28T10:24:50Z</time>
      </trkpt>
      <trkpt lat="48.96857" lon="0.20648">
        <ele>189.52</ele>
        <time>2017-10-28T10:25:12Z</time>
      </trkpt>
      <trkpt lat="48.96861" lon="0.20633">
        <ele>189.52</ele>
        <time>2017-10-28T10:25:21Z</time>
      </trkpt>
      <trkpt lat="48.96864" lon="0.20617">
        <ele>189.52</ele>
        <time>2017-10-28T10:25:30Z</time>
      </trkpt>
      <trkpt lat="48.96866" lon="0.20602">
        <ele>189.52</ele>
        <time>2017-10-28T10:25:39Z</time>
      </trkpt>
      <trkpt lat="48.96868" lon="0.20588">
        <ele>189.52</ele>
        <time>2017-10-28T10:25:47Z</time>
      </trkpt>
      <trkpt lat="48.96869" lon="0.20573">
        <ele>189.52</ele>
        <time>2017-10-28T10:25:55Z</time>
      </trkpt>
      <trkpt lat="48.96872" lon="0.20557">
        <ele>189.52</ele>
        <time>2017-10-28T10:26:04Z</time>
      </trkpt>
      <trkpt lat="48.96875" lon="0.20543">
        <ele>189.52</ele>
        <time>2017-10-28T10:26:13Z</time>
      </trkpt>
      <trkpt lat="48.96878" lon="0.20528">
        <ele>189.52</ele>
        <time>2017-10-28T10:26:22Z</time>
      </trkpt>
      <trkpt lat="48.96881" lon="0.20512">
        <ele>189.52</ele>
        <time>2017-10-28T10:26:31Z</time>
      </trkpt>
      <trkpt lat="48.96884" lon="0.20497">
        <ele>189.52</ele>
        <time>2017-10-28T10:26:40Z</time>
      </trkpt>
      <trkpt lat="48.96888" lon="0.20481">
        <ele>189.52</ele>
        <time>2017-10-28T10:26:49Z</time>
      </trkpt>
      <trkpt lat="48.96892" lon="0.20466">
        <ele>189.52</ele>
        <time>2017-10-28T10:26:58Z</time>
      </trkpt>
      <trkpt lat="48.96893" lon="0.2045">
        <ele>189.04</ele>
        <time>2017-10-28T10:27:07Z</time>
      </trkpt>
      <trkpt lat="48.96894" lon="0.2043">
        <ele>189.04</ele>
        <time>2017-10-28T10:27:18Z</time>
      </trkpt>
      <trkpt lat="48.96895" lon="0.20413">
        <ele>189.04</ele>
        <time>2017-10-28T10:27:28Z</time>
      </trkpt>
      <trkpt lat="48.96897" lon="0.20394">
        <ele>189.04</ele>
        <time>2017-10-28T10:27:39Z</time>
      </trkpt>
      <trkpt lat="48.96899" lon="0.20376">
        <ele>189.04</ele>
        <time>2017-10-28T10:27:49Z</time>
      </trkpt>
      <trkpt lat="48.96902" lon="0.20359">
        <ele>189.04</ele>
        <time>2017-10-28T10:27:58Z</time>
      </trkpt>
      <trkpt lat="48.96905" lon="0.20343">
        <ele>189.04</ele>
        <time>2017-10-28T10:28:08Z</time>
      </trkpt>
      <trkpt lat="48.96909" lon="0.20327">
        <ele>189.04</ele>
        <time>2017-10-28T10:28:17Z</time>
      </trkpt>
      <trkpt lat="48.96913" lon="0.20313">
        <ele>189.04</ele>
        <time>2017-10-28T10:28:26Z</time>
      </trkpt>
      <trkpt lat="48.96919" lon="0.203">
        <ele>189.04</ele>
        <time>2017-10-28T10:28:35Z</time>
      </trkpt>
      <trkpt lat="48.96925" lon="0.20286">
        <ele>189.04</ele>
        <time>2017-10-28T10:29:07Z</time>
      </trkpt>
      <trkpt lat="48.9693" lon="0.20274">
        <ele>189.04</ele>
        <time>2017-10-28T10:29:18Z</time>
      </trkpt>
      <trkpt lat="48.96936" lon="0.20258">
        <ele>189.52</ele>
        <time>2017-10-28T10:29:32Z</time>
      </trkpt>
      <trkpt lat="48.96941" lon="0.20245">
        <ele>189.52</ele>
        <time>2017-10-28T10:29:41Z</time>
      </trkpt>
      <trkpt lat="48.96946" lon="0.20232">
        <ele>189.52</ele>
        <time>2017-10-28T10:29:51Z</time>
      </trkpt>
      <trkpt lat="48.96951" lon="0.20219">
        <ele>189.52</ele>
        <time>2017-10-28T10:30:01Z</time>
      </trkpt>
      <trkpt lat="48.96955" lon="0.20204">
        <ele>189.52</ele>
        <time>2017-10-28T10:30:10Z</time>
      </trkpt>
      <trkpt lat="48.96961" lon="0.2019">
        <ele>189.52</ele>
        <time>2017-10-28T10:30:19Z</time>
      </trkpt>
      <trkpt lat="48.96967" lon="0.20179">
        <ele>189.52</ele>
        <time>2017-10-28T10:30:27Z</time>
      </trkpt>
      <trkpt lat="48.96974" lon="0.20168">
        <ele>189.52</ele>
        <time>2017-10-28T10:30:35Z</time>
      </trkpt>
      <trkpt lat="48.96982" lon="0.2016">
        <ele>189.52</ele>
        <time>2017-10-28T10:30:43Z</time>
      </trkpt>
      <trkpt lat="48.9699" lon="0.20152">
        <ele>189.52</ele>
        <time>2017-10-28T10:30:51Z</time>
      </trkpt>
      <trkpt lat="48.96998" lon="0.20145">
        <ele>189.52</ele>
        <time>2017-10-28T10:31:00Z</time>
      </trkpt>
      <trkpt lat="48.97006" lon="0.20136">
        <ele>189.52</ele>
        <time>2017-10-28T10:31:08Z</time>
      </trkpt>
      <trkpt lat="48.97015" lon="0.20129">
        <ele>188.08</ele>
        <time>2017-10-28T10:31:16Z</time>
      </trkpt>
      <trkpt lat="48.97023" lon="0.20121">
        <ele>188.08</ele>
        <time>2017-10-28T10:31:24Z</time>
      </trkpt>
      <trkpt lat="48.97031" lon="0.20113">
        <ele>188.08</ele>
        <time>2017-10-28T10:31:32Z</time>
      </trkpt>
      <trkpt lat="48.9704" lon="0.20106">
        <ele>188.08</ele>
        <time>2017-10-28T10:31:40Z</time>
      </trkpt>
      <trkpt lat="48.97049" lon="0.201">
        <ele>188.08</ele>
        <time>2017-10-28T10:31:48Z</time>
      </trkpt>
      <trkpt lat="48.97058" lon="0.20095">
        <ele>188.08</ele>
        <time>2017-10-28T10:31:56Z</time>
      </trkpt>
      <trkpt lat="48.97067" lon="0.20091">
        <ele>188.08</ele>
        <time>2017-10-28T10:32:05Z</time>
      </trkpt>
      <trkpt lat="48.97078" lon="0.20086">
        <ele>188.08</ele>
        <time>2017-10-28T10:32:14Z</time>
      </trkpt>
      <trkpt lat="48.97087" lon="0.20082">
        <ele>187.59</ele>
        <time>2017-10-28T10:32:23Z</time>
      </trkpt>
      <trkpt lat="48.97097" lon="0.20087">
        <ele>187.59</ele>
        <time>2017-10-28T10:32:33Z</time>
      </trkpt>
      <trkpt lat="48.97105" lon="0.20097">
        <ele>187.59</ele>
        <time>2017-10-28T10:32:43Z</time>
      </trkpt>
      <trkpt lat="48.97113" lon="0.20111">
        <ele>187.59</ele>
        <time>2017-10-28T10:32:54Z</time>
      </trkpt>
      <trkpt lat="48.97121" lon="0.20122">
        <ele>187.59</ele>
        <time>2017-10-28T10:33:05Z</time>
      </trkpt>
      <trkpt lat="48.97131" lon="0.20127">
        <ele>188.08</ele>
        <time>2017-10-28T10:33:15Z</time>
      </trkpt>
      <trkpt lat="48.97141" lon="0.20125">
        <ele>187.11</ele>
        <time>2017-10-28T10:33:24Z</time>
      </trkpt>
      <trkpt lat="48.97151" lon="0.20121">
        <ele>186.63</ele>
        <time>2017-10-28T10:33:34Z</time>
      </trkpt>
      <trkpt lat="48.97162" lon="0.20117">
        <ele>186.63</ele>
        <time>2017-10-28T10:33:44Z</time>
      </trkpt>
      <trkpt lat="48.97172" lon="0.20114">
        <ele>186.63</ele>
        <time>2017-10-28T10:33:54Z</time>
      </trkpt>
      <trkpt lat="48.97182" lon="0.20111">
        <ele>186.63</ele>
        <time>2017-10-28T10:34:03Z</time>
      </trkpt>
      <trkpt lat="48.97192" lon="0.2011">
        <ele>186.63</ele>
        <time>2017-10-28T10:34:13Z</time>
      </trkpt>
      <trkpt lat="48.97202" lon="0.20107">
        <ele>186.63</ele>
        <time>2017-10-28T10:34:22Z</time>
      </trkpt>
      <trkpt lat="48.97212" lon="0.20104">
        <ele>186.63</ele>
        <time>2017-10-28T10:34:32Z</time>
      </trkpt>
      <trkpt lat="48.97222" lon="0.20101">
        <ele>186.63</ele>
        <time>2017-10-28T10:34:42Z</time>
      </trkpt>
      <trkpt lat="48.97233" lon="0.20098">
        <ele>186.15</ele>
        <time>2017-10-28T10:34:52Z</time>
      </trkpt>
      <trkpt lat="48.97244" lon="0.20095">
        <ele>186.15</ele>
        <time>2017-10-28T10:35:02Z</time>
      </trkpt>
      <trkpt lat="48.97254" lon="0.20091">
        <ele>185.67</ele>
        <time>2017-10-28T10:35:11Z</time>
      </trkpt>
      <trkpt lat="48.97264" lon="0.20088">
        <ele>185.19</ele>
        <time>2017-10-28T10:35:20Z</time>
      </trkpt>
      <trkpt lat="48.97274" lon="0.20083">
        <ele>185.19</ele>
        <time>2017-10-28T10:35:49Z</time>
      </trkpt>
      <trkpt lat="48.9728" lon="0.2008">
        <ele>185.19</ele>
        <time>2017-10-28T10:38:32Z</time>
      </trkpt>
      <trkpt lat="48.9728" lon="0.20083">
        <ele>185.19</ele>
        <time>2017-10-28T10:38:38Z</time>
      </trkpt>
      <trkpt lat="48.9728" lon="0.20083">
        <ele>188.08</ele>
        <time>2017-10-28T11:11:14Z</time>
      </trkpt>
      <trkpt lat="48.9728" lon="0.20082">
        <ele>188.08</ele>
        <time>2017-10-28T11:11:15Z</time>
      </trkpt>
      <trkpt lat="48.9728" lon="0.2008">
        <ele>188.08</ele>
        <time>2017-10-28T11:13:09Z</time>
      </trkpt>
      <trkpt lat="48.97281" lon="0.2008">
        <ele>186.63</ele>
        <time>2017-10-28T11:17:05Z</time>
      </trkpt>
      <trkpt lat="48.97284" lon="0.20077">
        <ele>185.67</ele>
        <time>2017-10-28T11:19:54Z</time>
      </trkpt>
      <trkpt lat="48.97294" lon="0.20074">
        <ele>185.19</ele>
        <time>2017-10-28T11:20:09Z</time>
      </trkpt>
      <trkpt lat="48.97303" lon="0.20068">
        <ele>185.19</ele>
        <time>2017-10-28T11:20:22Z</time>
      </trkpt>
      <trkpt lat="48.97313" lon="0.20062">
        <ele>185.19</ele>
        <time>2017-10-28T11:20:33Z</time>
      </trkpt>
      <trkpt lat="48.97322" lon="0.20056">
        <ele>185.19</ele>
        <time>2017-10-28T11:20:44Z</time>
      </trkpt>
      <trkpt lat="48.97331" lon="0.2005">
        <ele>185.19</ele>
        <time>2017-10-28T11:20:54Z</time>
      </trkpt>
      <trkpt lat="48.97341" lon="0.20045">
        <ele>184.71</ele>
        <time>2017-10-28T11:21:05Z</time>
      </trkpt>
      <trkpt lat="48.97351" lon="0.20043">
        <ele>184.23</ele>
        <time>2017-10-28T11:21:17Z</time>
      </trkpt>
      <trkpt lat="48.97362" lon="0.20043">
        <ele>183.75</ele>
        <time>2017-10-28T11:21:29Z</time>
      </trkpt>
      <trkpt lat="48.97373" lon="0.20045">
        <ele>183.75</ele>
        <time>2017-10-28T11:21:41Z</time>
      </trkpt>
      <trkpt lat="48.97385" lon="0.20044">
        <ele>183.75</ele>
        <time>2017-10-28T11:21:51Z</time>
      </trkpt>
      <trkpt lat="48.97396" lon="0.20043">
        <ele>182.79</ele>
        <time>2017-10-28T11:22:02Z</time>
      </trkpt>
      <trkpt lat="48.97413" lon="0.2004">
        <ele>182.31</ele>
        <time>2017-10-28T11:22:17Z</time>
      </trkpt>
      <trkpt lat="48.97426" lon="0.2004">
        <ele>181.83</ele>
        <time>2017-10-28T11:22:29Z</time>
      </trkpt>
      <trkpt lat="48.97438" lon="0.20043">
        <ele>181.35</ele>
        <time>2017-10-28T11:22:40Z</time>
      </trkpt>
      <trkpt lat="48.97448" lon="0.20046">
        <ele>181.35</ele>
        <time>2017-10-28T11:22:51Z</time>
      </trkpt>
      <trkpt lat="48.9746" lon="0.20049">
        <ele>181.35</ele>
        <time>2017-10-28T11:23:04Z</time>
      </trkpt>
      <trkpt lat="48.97474" lon="0.20049">
        <ele>180.38</ele>
        <time>2017-10-28T11:23:17Z</time>
      </trkpt>
      <trkpt lat="48.97485" lon="0.20049">
        <ele>179.9</ele>
        <time>2017-10-28T11:23:27Z</time>
      </trkpt>
      <trkpt lat="48.97497" lon="0.20048">
        <ele>179.42</ele>
        <time>2017-10-28T11:23:36Z</time>
      </trkpt>
      <trkpt lat="48.97509" lon="0.20044">
        <ele>178.94</ele>
        <time>2017-10-28T11:23:47Z</time>
      </trkpt>
      <trkpt lat="48.97519" lon="0.20046">
        <ele>177.98</ele>
        <time>2017-10-28T11:23:59Z</time>
      </trkpt>
      <trkpt lat="48.97532" lon="0.20049">
        <ele>177.5</ele>
        <time>2017-10-28T11:24:09Z</time>
      </trkpt>
      <trkpt lat="48.97543" lon="0.20051">
        <ele>177.5</ele>
        <time>2017-10-28T11:24:19Z</time>
      </trkpt>
      <trkpt lat="48.97555" lon="0.20053">
        <ele>177.02</ele>
        <time>2017-10-28T11:24:31Z</time>
      </trkpt>
      <trkpt lat="48.97566" lon="0.20054">
        <ele>176.06</ele>
        <time>2017-10-28T11:24:43Z</time>
      </trkpt>
      <trkpt lat="48.97579" lon="0.20056">
        <ele>175.1</ele>
        <time>2017-10-28T11:24:55Z</time>
      </trkpt>
      <trkpt lat="48.97591" lon="0.20058">
        <ele>175.1</ele>
        <time>2017-10-28T11:25:07Z</time>
      </trkpt>
      <trkpt lat="48.97604" lon="0.20059">
        <ele>174.14</ele>
        <time>2017-10-28T11:25:21Z</time>
      </trkpt>
      <trkpt lat="48.97619" lon="0.20059">
        <ele>172.69</ele>
        <time>2017-10-28T11:25:34Z</time>
      </trkpt>
      <trkpt lat="48.97632" lon="0.20058">
        <ele>171.73</ele>
        <time>2017-10-28T11:25:45Z</time>
      </trkpt>
      <trkpt lat="48.97655" lon="0.20056">
        <ele>170.29</ele>
        <time>2017-10-28T11:26:03Z</time>
      </trkpt>
      <trkpt lat="48.97669" lon="0.20055">
        <ele>169.33</ele>
        <time>2017-10-28T11:26:14Z</time>
      </trkpt>
      <trkpt lat="48.97681" lon="0.20053">
        <ele>168.85</ele>
        <time>2017-10-28T11:26:22Z</time>
      </trkpt>
      <trkpt lat="48.97691" lon="0.20052">
        <ele>167.89</ele>
        <time>2017-10-28T11:26:31Z</time>
      </trkpt>
      <trkpt lat="48.97701" lon="0.20053">
        <ele>166.93</ele>
        <time>2017-10-28T11:26:40Z</time>
      </trkpt>
      <trkpt lat="48.97712" lon="0.20056">
        <ele>165.96</ele>
        <time>2017-10-28T11:26:54Z</time>
      </trkpt>
      <trkpt lat="48.97739" lon="0.20061">
        <ele>161.16</ele>
        <time>2017-10-28T11:27:31Z</time>
      </trkpt>
      <trkpt lat="48.97761" lon="0.20065">
        <ele>158.27</ele>
        <time>2017-10-28T11:27:53Z</time>
      </trkpt>
      <trkpt lat="48.97782" lon="0.20066">
        <ele>154.43</ele>
        <time>2017-10-28T11:28:14Z</time>
      </trkpt>
      <trkpt lat="48.97814" lon="0.20066">
        <ele>149.62</ele>
        <time>2017-10-28T11:28:50Z</time>
      </trkpt>
      <trkpt lat="48.97831" lon="0.20071">
        <ele>147.7</ele>
        <time>2017-10-28T11:29:11Z</time>
      </trkpt>
      <trkpt lat="48.97849" lon="0.20075">
        <ele>143.85</ele>
        <time>2017-10-28T11:29:37Z</time>
      </trkpt>
      <trkpt lat="48.97859" lon="0.20073">
        <ele>141.45</ele>
        <time>2017-10-28T11:29:52Z</time>
      </trkpt>
      <trkpt lat="48.9787" lon="0.20072">
        <ele>140.97</ele>
        <time>2017-10-28T11:30:05Z</time>
      </trkpt>
      <trkpt lat="48.97881" lon="0.20071">
        <ele>139.53</ele>
        <time>2017-10-28T11:30:17Z</time>
      </trkpt>
      <trkpt lat="48.97891" lon="0.20069">
        <ele>138.57</ele>
        <time>2017-10-28T11:30:27Z</time>
      </trkpt>
      <trkpt lat="48.979" lon="0.20066">
        <ele>137.61</ele>
        <time>2017-10-28T11:30:36Z</time>
      </trkpt>
      <trkpt lat="48.97909" lon="0.2006">
        <ele>137.61</ele>
        <time>2017-10-28T11:30:50Z</time>
      </trkpt>
      <trkpt lat="48.97917" lon="0.20057">
        <ele>137.13</ele>
        <time>2017-10-28T11:31:11Z</time>
      </trkpt>
      <trkpt lat="48.97927" lon="0.20053">
        <ele>137.13</ele>
        <time>2017-10-28T11:31:20Z</time>
      </trkpt>
      <trkpt lat="48.97938" lon="0.20048">
        <ele>137.13</ele>
        <time>2017-10-28T11:31:29Z</time>
      </trkpt>
      <trkpt lat="48.97947" lon="0.20041">
        <ele>136.64</ele>
        <time>2017-10-28T11:31:38Z</time>
      </trkpt>
      <trkpt lat="48.97956" lon="0.20037">
        <ele>138.09</ele>
        <time>2017-10-28T11:31:47Z</time>
      </trkpt>
      <trkpt lat="48.97966" lon="0.20034">
        <ele>137.61</ele>
        <time>2017-10-28T11:31:56Z</time>
      </trkpt>
      <trkpt lat="48.97976" lon="0.20036">
        <ele>137.61</ele>
        <time>2017-10-28T11:32:05Z</time>
      </trkpt>
      <trkpt lat="48.97987" lon="0.20037">
        <ele>137.61</ele>
        <time>2017-10-28T11:32:14Z</time>
      </trkpt>
      <trkpt lat="48.97997" lon="0.20035">
        <ele>138.09</ele>
        <time>2017-10-28T11:32:23Z</time>
      </trkpt>
      <trkpt lat="48.98005" lon="0.20022">
        <ele>138.09</ele>
        <time>2017-10-28T11:32:33Z</time>
      </trkpt>
      <trkpt lat="48.98008" lon="0.20007">
        <ele>139.53</ele>
        <time>2017-10-28T11:32:44Z</time>
      </trkpt>
      <trkpt lat="48.98008" lon="0.1999">
        <ele>140.49</ele>
        <time>2017-10-28T11:32:55Z</time>
      </trkpt>
      <trkpt lat="48.98007" lon="0.19974">
        <ele>141.93</ele>
        <time>2017-10-28T11:33:06Z</time>
      </trkpt>
      <trkpt lat="48.98005" lon="0.19957">
        <ele>142.89</ele>
        <time>2017-10-28T11:33:17Z</time>
      </trkpt>
      <trkpt lat="48.98003" lon="0.19943">
        <ele>144.34</ele>
        <time>2017-10-28T11:33:30Z</time>
      </trkpt>
      <trkpt lat="48.97999" lon="0.19925">
        <ele>146.26</ele>
        <time>2017-10-28T11:33:47Z</time>
      </trkpt>
      <trkpt lat="48.97995" lon="0.19906">
        <ele>146.74</ele>
        <time>2017-10-28T11:34:01Z</time>
      </trkpt>
      <trkpt lat="48.97994" lon="0.19885">
        <ele>148.18</ele>
        <time>2017-10-28T11:34:15Z</time>
      </trkpt>
      <trkpt lat="48.97996" lon="0.19867">
        <ele>148.66</ele>
        <time>2017-10-28T11:34:27Z</time>
      </trkpt>
      <trkpt lat="48.97997" lon="0.1985">
        <ele>149.14</ele>
        <time>2017-10-28T11:34:39Z</time>
      </trkpt>
      <trkpt lat="48.97995" lon="0.19831">
        <ele>147.7</ele>
        <time>2017-10-28T11:34:50Z</time>
      </trkpt>
      <trkpt lat="48.97994" lon="0.19813">
        <ele>147.7</ele>
        <time>2017-10-28T11:35:00Z</time>
      </trkpt>
      <trkpt lat="48.97993" lon="0.19797">
        <ele>147.7</ele>
        <time>2017-10-28T11:35:10Z</time>
      </trkpt>
      <trkpt lat="48.97993" lon="0.19782">
        <ele>147.7</ele>
        <time>2017-10-28T11:35:20Z</time>
      </trkpt>
      <trkpt lat="48.97993" lon="0.19765">
        <ele>147.7</ele>
        <time>2017-10-28T11:35:30Z</time>
      </trkpt>
      <trkpt lat="48.97992" lon="0.19749">
        <ele>147.22</ele>
        <time>2017-10-28T11:35:40Z</time>
      </trkpt>
      <trkpt lat="48.97991" lon="0.19734">
        <ele>147.22</ele>
        <time>2017-10-28T11:35:50Z</time>
      </trkpt>
      <trkpt lat="48.9799" lon="0.19716">
        <ele>147.22</ele>
        <time>2017-10-28T11:36:02Z</time>
      </trkpt>
      <trkpt lat="48.97989" lon="0.197">
        <ele>147.22</ele>
        <time>2017-10-28T11:36:14Z</time>
      </trkpt>
      <trkpt lat="48.97988" lon="0.19684">
        <ele>147.22</ele>
        <time>2017-10-28T11:36:24Z</time>
      </trkpt>
      <trkpt lat="48.97987" lon="0.1967">
        <ele>147.22</ele>
        <time>2017-10-28T11:36:34Z</time>
      </trkpt>
      <trkpt lat="48.97986" lon="0.19655">
        <ele>148.18</ele>
        <time>2017-10-28T11:36:44Z</time>
      </trkpt>
      <trkpt lat="48.97985" lon="0.19638">
        <ele>148.66</ele>
        <time>2017-10-28T11:36:55Z</time>
      </trkpt>
      <trkpt lat="48.97985" lon="0.19623">
        <ele>149.14</ele>
        <time>2017-10-28T11:37:05Z</time>
      </trkpt>
      <trkpt lat="48.97988" lon="0.19608">
        <ele>149.62</ele>
        <time>2017-10-28T11:37:15Z</time>
      </trkpt>
      <trkpt lat="48.97991" lon="0.19593">
        <ele>149.62</ele>
        <time>2017-10-28T11:37:25Z</time>
      </trkpt>
      <trkpt lat="48.97997" lon="0.19579">
        <ele>150.58</ele>
        <time>2017-10-28T11:37:35Z</time>
      </trkpt>
      <trkpt lat="48.98003" lon="0.19567">
        <ele>150.58</ele>
        <time>2017-10-28T11:37:45Z</time>
      </trkpt>
      <trkpt lat="48.98011" lon="0.19554">
        <ele>151.06</ele>
        <time>2017-10-28T11:37:56Z</time>
      </trkpt>
      <trkpt lat="48.98018" lon="0.19543">
        <ele>151.06</ele>
        <time>2017-10-28T11:38:06Z</time>
      </trkpt>
      <trkpt lat="48.98023" lon="0.1953">
        <ele>151.06</ele>
        <time>2017-10-28T11:38:16Z</time>
      </trkpt>
      <trkpt lat="48.98024" lon="0.19514">
        <ele>148.66</ele>
        <time>2017-10-28T11:38:29Z</time>
      </trkpt>
      <trkpt lat="48.98023" lon="0.19496">
        <ele>147.7</ele>
        <time>2017-10-28T11:38:39Z</time>
      </trkpt>
      <trkpt lat="48.98021" lon="0.1948">
        <ele>147.7</ele>
        <time>2017-10-28T11:38:49Z</time>
      </trkpt>
      <trkpt lat="48.98019" lon="0.19464">
        <ele>147.22</ele>
        <time>2017-10-28T11:38:59Z</time>
      </trkpt>
      <trkpt lat="48.98019" lon="0.19448">
        <ele>147.22</ele>
        <time>2017-10-28T11:39:09Z</time>
      </trkpt>
      <trkpt lat="48.98022" lon="0.19434">
        <ele>148.66</ele>
        <time>2017-10-28T11:39:20Z</time>
      </trkpt>
      <trkpt lat="48.98028" lon="0.19419">
        <ele>149.14</ele>
        <time>2017-10-28T11:39:32Z</time>
      </trkpt>
      <trkpt lat="48.98035" lon="0.19403">
        <ele>150.1</ele>
        <time>2017-10-28T11:39:45Z</time>
      </trkpt>
      <trkpt lat="48.9804" lon="0.19387">
        <ele>151.54</ele>
        <time>2017-10-28T11:39:58Z</time>
      </trkpt>
      <trkpt lat="48.98044" lon="0.19372">
        <ele>152.51</ele>
        <time>2017-10-28T11:40:10Z</time>
      </trkpt>
      <trkpt lat="48.98046" lon="0.19357">
        <ele>152.99</ele>
        <time>2017-10-28T11:40:21Z</time>
      </trkpt>
      <trkpt lat="48.98049" lon="0.19341">
        <ele>152.99</ele>
        <time>2017-10-28T11:40:31Z</time>
      </trkpt>
      <trkpt lat="48.98051" lon="0.19326">
        <ele>152.99</ele>
        <time>2017-10-28T11:40:41Z</time>
      </trkpt>
      <trkpt lat="48.98053" lon="0.19312">
        <ele>152.03</ele>
        <time>2017-10-28T11:40:50Z</time>
      </trkpt>
      <trkpt lat="48.98054" lon="0.19296">
        <ele>153.47</ele>
        <time>2017-10-28T11:41:00Z</time>
      </trkpt>
      <trkpt lat="48.98056" lon="0.19282">
        <ele>153.47</ele>
        <time>2017-10-28T11:41:09Z</time>
      </trkpt>
      <trkpt lat="48.98058" lon="0.19267">
        <ele>153.47</ele>
        <time>2017-10-28T11:41:19Z</time>
      </trkpt>
      <trkpt lat="48.9806" lon="0.19253">
        <ele>154.43</ele>
        <time>2017-10-28T11:41:30Z</time>
      </trkpt>
      <trkpt lat="48.9806" lon="0.19237">
        <ele>155.39</ele>
        <time>2017-10-28T11:41:40Z</time>
      </trkpt>
      <trkpt lat="48.98061" lon="0.19221">
        <ele>155.87</ele>
        <time>2017-10-28T11:41:51Z</time>
      </trkpt>
      <trkpt lat="48.98062" lon="0.19207">
        <ele>156.35</ele>
        <time>2017-10-28T11:42:01Z</time>
      </trkpt>
      <trkpt lat="48.98065" lon="0.19191">
        <ele>156.35</ele>
        <time>2017-10-28T11:42:13Z</time>
      </trkpt>
      <trkpt lat="48.98065" lon="0.19174">
        <ele>156.83</ele>
        <time>2017-10-28T11:42:26Z</time>
      </trkpt>
      <trkpt lat="48.98066" lon="0.19158">
        <ele>156.83</ele>
        <time>2017-10-28T11:42:36Z</time>
      </trkpt>
      <trkpt lat="48.98066" lon="0.1914">
        <ele>155.39</ele>
        <time>2017-10-28T11:42:47Z</time>
      </trkpt>
      <trkpt lat="48.98066" lon="0.19125">
        <ele>154.43</ele>
        <time>2017-10-28T11:42:56Z</time>
      </trkpt>
      <trkpt lat="48.98063" lon="0.19109">
        <ele>154.43</ele>
        <time>2017-10-28T11:43:05Z</time>
      </trkpt>
      <trkpt lat="48.98059" lon="0.19096">
        <ele>154.43</ele>
        <time>2017-10-28T11:43:15Z</time>
      </trkpt>
      <trkpt lat="48.98054" lon="0.1908">
        <ele>153.47</ele>
        <time>2017-10-28T11:43:25Z</time>
      </trkpt>
      <trkpt lat="48.98052" lon="0.19062">
        <ele>153.47</ele>
        <time>2017-10-28T11:43:35Z</time>
      </trkpt>
      <trkpt lat="48.98051" lon="0.19047">
        <ele>153.47</ele>
        <time>2017-10-28T11:43:45Z</time>
      </trkpt>
      <trkpt lat="48.98054" lon="0.1903">
        <ele>152.99</ele>
        <time>2017-10-28T11:44:04Z</time>
      </trkpt>
      <trkpt lat="48.98065" lon="0.19006">
        <ele>155.39</ele>
        <time>2017-10-28T11:44:27Z</time>
      </trkpt>
      <trkpt lat="48.98074" lon="0.18983">
        <ele>156.83</ele>
        <time>2017-10-28T11:44:44Z</time>
      </trkpt>
      <trkpt lat="48.98079" lon="0.18951">
        <ele>158.75</ele>
        <time>2017-10-28T11:45:05Z</time>
      </trkpt>
      <trkpt lat="48.9808" lon="0.18925">
        <ele>159.72</ele>
        <time>2017-10-28T11:45:24Z</time>
      </trkpt>
      <trkpt lat="48.9808" lon="0.189">
        <ele>160.68</ele>
        <time>2017-10-28T11:45:41Z</time>
      </trkpt>
      <trkpt lat="48.98081" lon="0.18874">
        <ele>161.16</ele>
        <time>2017-10-28T11:46:00Z</time>
      </trkpt>
      <trkpt lat="48.98078" lon="0.18832">
        <ele>161.16</ele>
        <time>2017-10-28T11:47:11Z</time>
      </trkpt>
      <trkpt lat="48.98085" lon="0.18817">
        <ele>161.16</ele>
        <time>2017-10-28T11:50:20Z</time>
      </trkpt>
      <trkpt lat="48.98095" lon="0.18818">
        <ele>161.16</ele>
        <time>2017-10-28T11:50:37Z</time>
      </trkpt>
      <trkpt lat="48.98106" lon="0.18821">
        <ele>162.12</ele>
        <time>2017-10-28T11:50:50Z</time>
      </trkpt>
      <trkpt lat="48.98115" lon="0.1883">
        <ele>162.12</ele>
        <time>2017-10-28T11:51:04Z</time>
      </trkpt>
      <trkpt lat="48.98127" lon="0.18843">
        <ele>162.6</ele>
        <time>2017-10-28T11:51:19Z</time>
      </trkpt>
      <trkpt lat="48.98142" lon="0.18853">
        <ele>162.12</ele>
        <time>2017-10-28T11:51:40Z</time>
      </trkpt>
      <trkpt lat="48.98159" lon="0.18856">
        <ele>163.08</ele>
        <time>2017-10-28T11:51:59Z</time>
      </trkpt>
      <trkpt lat="48.98171" lon="0.18858">
        <ele>164.52</ele>
        <time>2017-10-28T11:52:13Z</time>
      </trkpt>
      <trkpt lat="48.98184" lon="0.18862">
        <ele>166.93</ele>
        <time>2017-10-28T11:52:28Z</time>
      </trkpt>
      <trkpt lat="48.98196" lon="0.18868">
        <ele>169.33</ele>
        <time>2017-10-28T11:52:47Z</time>
      </trkpt>
      <trkpt lat="48.98206" lon="0.18877">
        <ele>171.73</ele>
        <time>2017-10-28T11:53:04Z</time>
      </trkpt>
      <trkpt lat="48.98213" lon="0.18889">
        <ele>173.17</ele>
        <time>2017-10-28T11:53:18Z</time>
      </trkpt>
      <trkpt lat="48.98218" lon="0.18903">
        <ele>174.14</ele>
        <time>2017-10-28T11:53:31Z</time>
      </trkpt>
      <trkpt lat="48.98223" lon="0.18917">
        <ele>175.1</ele>
        <time>2017-10-28T11:53:43Z</time>
      </trkpt>
      <trkpt lat="48.98227" lon="0.1893">
        <ele>175.58</ele>
        <time>2017-10-28T11:53:54Z</time>
      </trkpt>
      <trkpt lat="48.98231" lon="0.18945">
        <ele>177.02</ele>
        <time>2017-10-28T11:54:06Z</time>
      </trkpt>
      <trkpt lat="48.98235" lon="0.18958">
        <ele>177.98</ele>
        <time>2017-10-28T11:54:17Z</time>
      </trkpt>
      <trkpt lat="48.9824" lon="0.18972">
        <ele>178.94</ele>
        <time>2017-10-28T11:54:29Z</time>
      </trkpt>
      <trkpt lat="48.98245" lon="0.18985">
        <ele>179.42</ele>
        <time>2017-10-28T11:54:40Z</time>
      </trkpt>
      <trkpt lat="48.98251" lon="0.18997">
        <ele>179.9</ele>
        <time>2017-10-28T11:54:52Z</time>
      </trkpt>
      <trkpt lat="48.98261" lon="0.19001">
        <ele>180.87</ele>
        <time>2017-10-28T11:55:05Z</time>
      </trkpt>
      <trkpt lat="48.98272" lon="0.19005">
        <ele>181.83</ele>
        <time>2017-10-28T11:55:19Z</time>
      </trkpt>
      <trkpt lat="48.98284" lon="0.19008">
        <ele>182.79</ele>
        <time>2017-10-28T11:55:32Z</time>
      </trkpt>
      <trkpt lat="48.98296" lon="0.19013">
        <ele>183.27</ele>
        <time>2017-10-28T11:55:44Z</time>
      </trkpt>
      <trkpt lat="48.98308" lon="0.19016">
        <ele>183.75</ele>
        <time>2017-10-28T11:55:56Z</time>
      </trkpt>
      <trkpt lat="48.98322" lon="0.19021">
        <ele>183.75</ele>
        <time>2017-10-28T11:56:10Z</time>
      </trkpt>
      <trkpt lat="48.98333" lon="0.19026">
        <ele>184.71</ele>
        <time>2017-10-28T11:56:23Z</time>
      </trkpt>
      <trkpt lat="48.98344" lon="0.19034">
        <ele>184.71</ele>
        <time>2017-10-28T11:56:37Z</time>
      </trkpt>
      <trkpt lat="48.98356" lon="0.19041">
        <ele>185.19</ele>
        <time>2017-10-28T11:56:49Z</time>
      </trkpt>
      <trkpt lat="48.9837" lon="0.19048">
        <ele>185.19</ele>
        <time>2017-10-28T11:57:02Z</time>
      </trkpt>
      <trkpt lat="48.98383" lon="0.19054">
        <ele>185.67</ele>
        <time>2017-10-28T11:57:15Z</time>
      </trkpt>
      <trkpt lat="48.98395" lon="0.1906">
        <ele>186.15</ele>
        <time>2017-10-28T11:57:28Z</time>
      </trkpt>
      <trkpt lat="48.98412" lon="0.19066">
        <ele>187.59</ele>
        <time>2017-10-28T12:01:48Z</time>
      </trkpt>
      <trkpt lat="48.98421" lon="0.19078">
        <ele>187.59</ele>
        <time>2017-10-28T12:02:06Z</time>
      </trkpt>
      <trkpt lat="48.98433" lon="0.19082">
        <ele>187.59</ele>
        <time>2017-10-28T12:02:22Z</time>
      </trkpt>
      <trkpt lat="48.98445" lon="0.19087">
        <ele>188.08</ele>
        <time>2017-10-28T12:02:38Z</time>
      </trkpt>
      <trkpt lat="48.98458" lon="0.19089">
        <ele>188.08</ele>
        <time>2017-10-28T12:02:53Z</time>
      </trkpt>
      <trkpt lat="48.98474" lon="0.19092">
        <ele>188.08</ele>
        <time>2017-10-28T12:03:09Z</time>
      </trkpt>
      <trkpt lat="48.98491" lon="0.19095">
        <ele>187.59</ele>
        <time>2017-10-28T12:03:21Z</time>
      </trkpt>
      <trkpt lat="48.98504" lon="0.19097">
        <ele>187.59</ele>
        <time>2017-10-28T12:03:33Z</time>
      </trkpt>
      <trkpt lat="48.98517" lon="0.19098">
        <ele>187.59</ele>
        <time>2017-10-28T12:03:46Z</time>
      </trkpt>
      <trkpt lat="48.9853" lon="0.19099">
        <ele>187.59</ele>
        <time>2017-10-28T12:03:57Z</time>
      </trkpt>
      <trkpt lat="48.98541" lon="0.19101">
        <ele>188.08</ele>
        <time>2017-10-28T12:04:09Z</time>
      </trkpt>
      <trkpt lat="48.98555" lon="0.19101">
        <ele>188.08</ele>
        <time>2017-10-28T12:04:24Z</time>
      </trkpt>
      <trkpt lat="48.98566" lon="0.19102">
        <ele>188.08</ele>
        <time>2017-10-28T12:04:36Z</time>
      </trkpt>
      <trkpt lat="48.9858" lon="0.19107">
        <ele>188.56</ele>
        <time>2017-10-28T12:04:55Z</time>
      </trkpt>
      <trkpt lat="48.98594" lon="0.19113">
        <ele>188.56</ele>
        <time>2017-10-28T12:05:10Z</time>
      </trkpt>
      <trkpt lat="48.98609" lon="0.19119">
        <ele>188.08</ele>
        <time>2017-10-28T12:05:23Z</time>
      </trkpt>
      <trkpt lat="48.98623" lon="0.19126">
        <ele>188.56</ele>
        <time>2017-10-28T12:05:38Z</time>
      </trkpt>
      <trkpt lat="48.98635" lon="0.19132">
        <ele>188.56</ele>
        <time>2017-10-28T12:05:53Z</time>
      </trkpt>
      <trkpt lat="48.98654" lon="0.19139">
        <ele>188.08</ele>
        <time>2017-10-28T12:06:08Z</time>
      </trkpt>
      <trkpt lat="48.9867" lon="0.19147">
        <ele>188.08</ele>
        <time>2017-10-28T12:06:21Z</time>
      </trkpt>
      <trkpt lat="48.98685" lon="0.19157">
        <ele>188.08</ele>
        <time>2017-10-28T12:06:38Z</time>
      </trkpt>
      <trkpt lat="48.98699" lon="0.19166">
        <ele>188.08</ele>
        <time>2017-10-28T12:06:53Z</time>
      </trkpt>
      <trkpt lat="48.9871" lon="0.19175">
        <ele>187.59</ele>
        <time>2017-10-28T12:07:04Z</time>
      </trkpt>
      <trkpt lat="48.98724" lon="0.19185">
        <ele>187.59</ele>
        <time>2017-10-28T12:07:14Z</time>
      </trkpt>
      <trkpt lat="48.98734" lon="0.19194">
        <ele>187.59</ele>
        <time>2017-10-28T12:07:25Z</time>
      </trkpt>
      <trkpt lat="48.98745" lon="0.19203">
        <ele>188.08</ele>
        <time>2017-10-28T12:07:35Z</time>
      </trkpt>
      <trkpt lat="48.98754" lon="0.1921">
        <ele>187.59</ele>
        <time>2017-10-28T12:07:44Z</time>
      </trkpt>
      <trkpt lat="48.98764" lon="0.19218">
        <ele>187.59</ele>
        <time>2017-10-28T12:07:54Z</time>
      </trkpt>
      <trkpt lat="48.98774" lon="0.19227">
        <ele>188.08</ele>
        <time>2017-10-28T12:08:04Z</time>
      </trkpt>
      <trkpt lat="48.98787" lon="0.19236">
        <ele>188.08</ele>
        <time>2017-10-28T12:08:21Z</time>
      </trkpt>
      <trkpt lat="48.98798" lon="0.19242">
        <ele>188.08</ele>
        <time>2017-10-28T12:08:41Z</time>
      </trkpt>
      <trkpt lat="48.98807" lon="0.1925">
        <ele>188.56</ele>
        <time>2017-10-28T12:08:50Z</time>
      </trkpt>
      <trkpt lat="48.98816" lon="0.19257">
        <ele>188.56</ele>
        <time>2017-10-28T12:08:59Z</time>
      </trkpt>
      <trkpt lat="48.98825" lon="0.19264">
        <ele>188.08</ele>
        <time>2017-10-28T12:09:08Z</time>
      </trkpt>
      <trkpt lat="48.98835" lon="0.19272">
        <ele>188.08</ele>
        <time>2017-10-28T12:09:18Z</time>
      </trkpt>
      <trkpt lat="48.98844" lon="0.19279">
        <ele>188.08</ele>
        <time>2017-10-28T12:09:26Z</time>
      </trkpt>
      <trkpt lat="48.98853" lon="0.19286">
        <ele>188.08</ele>
        <time>2017-10-28T12:09:34Z</time>
      </trkpt>
      <trkpt lat="48.98863" lon="0.19294">
        <ele>188.08</ele>
        <time>2017-10-28T12:09:43Z</time>
      </trkpt>
      <trkpt lat="48.98873" lon="0.19301">
        <ele>188.08</ele>
        <time>2017-10-28T12:09:52Z</time>
      </trkpt>
      <trkpt lat="48.98883" lon="0.19308">
        <ele>188.08</ele>
        <time>2017-10-28T12:10:01Z</time>
      </trkpt>
      <trkpt lat="48.98893" lon="0.19316">
        <ele>188.08</ele>
        <time>2017-10-28T12:10:10Z</time>
      </trkpt>
      <trkpt lat="48.98902" lon="0.19325">
        <ele>188.08</ele>
        <time>2017-10-28T12:10:19Z</time>
      </trkpt>
      <trkpt lat="48.98912" lon="0.19334">
        <ele>188.08</ele>
        <time>2017-10-28T12:10:30Z</time>
      </trkpt>
      <trkpt lat="48.98922" lon="0.19344">
        <ele>188.08</ele>
        <time>2017-10-28T12:10:40Z</time>
      </trkpt>
      <trkpt lat="48.98929" lon="0.19355">
        <ele>188.08</ele>
        <time>2017-10-28T12:10:49Z</time>
      </trkpt>
      <trkpt lat="48.98938" lon="0.19367">
        <ele>188.08</ele>
        <time>2017-10-28T12:11:00Z</time>
      </trkpt>
      <trkpt lat="48.98947" lon="0.19377">
        <ele>187.59</ele>
        <time>2017-10-28T12:11:10Z</time>
      </trkpt>
      <trkpt lat="48.98956" lon="0.19387">
        <ele>187.59</ele>
        <time>2017-10-28T12:11:19Z</time>
      </trkpt>
      <trkpt lat="48.98965" lon="0.19396">
        <ele>186.63</ele>
        <time>2017-10-28T12:11:29Z</time>
      </trkpt>
      <trkpt lat="48.98975" lon="0.19404">
        <ele>186.63</ele>
        <time>2017-10-28T12:11:40Z</time>
      </trkpt>
      <trkpt lat="48.98985" lon="0.19411">
        <ele>186.63</ele>
        <time>2017-10-28T12:11:50Z</time>
      </trkpt>
      <trkpt lat="48.98995" lon="0.19416">
        <ele>186.15</ele>
        <time>2017-10-28T12:12:00Z</time>
      </trkpt>
      <trkpt lat="48.99005" lon="0.19418">
        <ele>186.15</ele>
        <time>2017-10-28T12:12:09Z</time>
      </trkpt>
      <trkpt lat="48.99015" lon="0.19423">
        <ele>186.15</ele>
        <time>2017-10-28T12:12:19Z</time>
      </trkpt>
      <trkpt lat="48.99025" lon="0.1943">
        <ele>185.67</ele>
        <time>2017-10-28T12:12:30Z</time>
      </trkpt>
      <trkpt lat="48.99036" lon="0.19437">
        <ele>185.67</ele>
        <time>2017-10-28T12:12:40Z</time>
      </trkpt>
      <trkpt lat="48.99045" lon="0.19444">
        <ele>185.67</ele>
        <time>2017-10-28T12:12:50Z</time>
      </trkpt>
      <trkpt lat="48.99054" lon="0.19453">
        <ele>185.67</ele>
        <time>2017-10-28T12:13:00Z</time>
      </trkpt>
      <trkpt lat="48.99063" lon="0.19462">
        <ele>185.67</ele>
        <time>2017-10-28T12:13:09Z</time>
      </trkpt>
      <trkpt lat="48.99073" lon="0.19469">
        <ele>185.19</ele>
        <time>2017-10-28T12:13:19Z</time>
      </trkpt>
      <trkpt lat="48.99085" lon="0.19471">
        <ele>185.19</ele>
        <time>2017-10-28T12:13:30Z</time>
      </trkpt>
      <trkpt lat="48.99097" lon="0.19473">
        <ele>185.19</ele>
        <time>2017-10-28T12:13:40Z</time>
      </trkpt>
      <trkpt lat="48.99108" lon="0.19478">
        <ele>185.19</ele>
        <time>2017-10-28T12:13:51Z</time>
      </trkpt>
      <trkpt lat="48.99118" lon="0.19482">
        <ele>184.71</ele>
        <time>2017-10-28T12:14:02Z</time>
      </trkpt>
      <trkpt lat="48.9913" lon="0.19485">
        <ele>185.19</ele>
        <time>2017-10-28T12:14:14Z</time>
      </trkpt>
      <trkpt lat="48.99141" lon="0.19488">
        <ele>184.71</ele>
        <time>2017-10-28T12:14:26Z</time>
      </trkpt>
      <trkpt lat="48.99155" lon="0.1949">
        <ele>184.23</ele>
        <time>2017-10-28T12:14:40Z</time>
      </trkpt>
      <trkpt lat="48.99174" lon="0.19492">
        <ele>184.23</ele>
        <time>2017-10-28T12:14:53Z</time>
      </trkpt>
      <trkpt lat="48.99189" lon="0.19493">
        <ele>184.23</ele>
        <time>2017-10-28T12:15:06Z</time>
      </trkpt>
      <trkpt lat="48.99202" lon="0.19494">
        <ele>184.23</ele>
        <time>2017-10-28T12:15:17Z</time>
      </trkpt>
      <trkpt lat="48.99216" lon="0.19496">
        <ele>184.23</ele>
        <time>2017-10-28T12:15:31Z</time>
      </trkpt>
      <trkpt lat="48.9923" lon="0.19498">
        <ele>185.19</ele>
        <time>2017-10-28T12:15:44Z</time>
      </trkpt>
      <trkpt lat="48.99245" lon="0.19501">
        <ele>185.19</ele>
        <time>2017-10-28T12:15:58Z</time>
      </trkpt>
      <trkpt lat="48.99257" lon="0.19503">
        <ele>185.19</ele>
        <time>2017-10-28T12:16:11Z</time>
      </trkpt>
      <trkpt lat="48.9927" lon="0.19504">
        <ele>185.67</ele>
        <time>2017-10-28T12:16:22Z</time>
      </trkpt>
      <trkpt lat="48.99285" lon="0.19507">
        <ele>185.67</ele>
        <time>2017-10-28T12:16:43Z</time>
      </trkpt>
      <trkpt lat="48.99295" lon="0.19516">
        <ele>183.75</ele>
        <time>2017-10-28T12:20:08Z</time>
      </trkpt>
      <trkpt lat="48.99304" lon="0.19514">
        <ele>183.75</ele>
        <time>2017-10-28T12:20:27Z</time>
      </trkpt>
      <trkpt lat="48.9931" lon="0.19527">
        <ele>183.75</ele>
        <time>2017-10-28T12:20:38Z</time>
      </trkpt>
      <trkpt lat="48.99318" lon="0.19541">
        <ele>183.75</ele>
        <time>2017-10-28T12:20:49Z</time>
      </trkpt>
      <trkpt lat="48.99325" lon="0.19556">
        <ele>183.27</ele>
        <time>2017-10-28T12:20:58Z</time>
      </trkpt>
      <trkpt lat="48.99332" lon="0.19569">
        <ele>183.27</ele>
        <time>2017-10-28T12:21:07Z</time>
      </trkpt>
      <trkpt lat="48.99339" lon="0.19581">
        <ele>183.27</ele>
        <time>2017-10-28T12:21:16Z</time>
      </trkpt>
      <trkpt lat="48.99347" lon="0.19592">
        <ele>182.79</ele>
        <time>2017-10-28T12:21:24Z</time>
      </trkpt>
      <trkpt lat="48.99354" lon="0.19604">
        <ele>182.31</ele>
        <time>2017-10-28T12:21:33Z</time>
      </trkpt>
      <trkpt lat="48.99362" lon="0.19616">
        <ele>182.31</ele>
        <time>2017-10-28T12:21:43Z</time>
      </trkpt>
      <trkpt lat="48.9937" lon="0.19627">
        <ele>181.83</ele>
        <time>2017-10-28T12:21:54Z</time>
      </trkpt>
      <trkpt lat="48.99379" lon="0.19637">
        <ele>181.83</ele>
        <time>2017-10-28T12:22:06Z</time>
      </trkpt>
      <trkpt lat="48.99388" lon="0.19648">
        <ele>181.83</ele>
        <time>2017-10-28T12:22:16Z</time>
      </trkpt>
      <trkpt lat="48.99397" lon="0.19658">
        <ele>181.83</ele>
        <time>2017-10-28T12:22:25Z</time>
      </trkpt>
      <trkpt lat="48.99402" lon="0.19649">
        <ele>182.79</ele>
        <time>2017-10-28T12:22:35Z</time>
      </trkpt>
      <trkpt lat="48.99404" lon="0.19633">
        <ele>182.79</ele>
        <time>2017-10-28T12:22:45Z</time>
      </trkpt>
      <trkpt lat="48.99409" lon="0.19617">
        <ele>183.27</ele>
        <time>2017-10-28T12:22:55Z</time>
      </trkpt>
      <trkpt lat="48.99414" lon="0.19601">
        <ele>184.23</ele>
        <time>2017-10-28T12:23:06Z</time>
      </trkpt>
      <trkpt lat="48.99421" lon="0.19586">
        <ele>184.23</ele>
        <time>2017-10-28T12:23:17Z</time>
      </trkpt>
      <trkpt lat="48.99427" lon="0.19568">
        <ele>184.71</ele>
        <time>2017-10-28T12:23:28Z</time>
      </trkpt>
      <trkpt lat="48.99432" lon="0.1955">
        <ele>184.71</ele>
        <time>2017-10-28T12:23:39Z</time>
      </trkpt>
      <trkpt lat="48.99439" lon="0.19535">
        <ele>184.71</ele>
        <time>2017-10-28T12:23:49Z</time>
      </trkpt>
      <trkpt lat="48.99446" lon="0.19522">
        <ele>184.71</ele>
        <time>2017-10-28T12:23:58Z</time>
      </trkpt>
      <trkpt lat="48.99454" lon="0.19511">
        <ele>184.71</ele>
        <time>2017-10-28T12:24:07Z</time>
      </trkpt>
      <trkpt lat="48.99462" lon="0.19494">
        <ele>184.71</ele>
        <time>2017-10-28T12:24:20Z</time>
      </trkpt>
      <trkpt lat="48.99473" lon="0.19477">
        <ele>184.71</ele>
        <time>2017-10-28T12:24:33Z</time>
      </trkpt>
      <trkpt lat="48.99482" lon="0.19461">
        <ele>184.71</ele>
        <time>2017-10-28T12:24:45Z</time>
      </trkpt>
      <trkpt lat="48.99488" lon="0.19442">
        <ele>185.19</ele>
        <time>2017-10-28T12:24:58Z</time>
      </trkpt>
      <trkpt lat="48.99496" lon="0.19423">
        <ele>184.71</ele>
        <time>2017-10-28T12:25:11Z</time>
      </trkpt>
      <trkpt lat="48.99505" lon="0.19405">
        <ele>184.71</ele>
        <time>2017-10-28T12:25:24Z</time>
      </trkpt>
      <trkpt lat="48.99514" lon="0.19387">
        <ele>184.71</ele>
        <time>2017-10-28T12:25:36Z</time>
      </trkpt>
      <trkpt lat="48.99524" lon="0.19372">
        <ele>184.71</ele>
        <time>2017-10-28T12:25:49Z</time>
      </trkpt>
      <trkpt lat="48.99534" lon="0.19357">
        <ele>184.71</ele>
        <time>2017-10-28T12:26:01Z</time>
      </trkpt>
      <trkpt lat="48.99545" lon="0.19344">
        <ele>184.71</ele>
        <time>2017-10-28T12:26:12Z</time>
      </trkpt>
      <trkpt lat="48.99556" lon="0.19332">
        <ele>184.71</ele>
        <time>2017-10-28T12:26:24Z</time>
      </trkpt>
      <trkpt lat="48.99569" lon="0.19323">
        <ele>184.71</ele>
        <time>2017-10-28T12:26:36Z</time>
      </trkpt>
      <trkpt lat="48.99583" lon="0.19318">
        <ele>184.23</ele>
        <time>2017-10-28T12:26:49Z</time>
      </trkpt>
      <trkpt lat="48.99596" lon="0.19309">
        <ele>184.23</ele>
        <time>2017-10-28T12:27:02Z</time>
      </trkpt>
      <trkpt lat="48.99604" lon="0.19297">
        <ele>183.27</ele>
        <time>2017-10-28T12:27:13Z</time>
      </trkpt>
      <trkpt lat="48.99614" lon="0.19285">
        <ele>182.79</ele>
        <time>2017-10-28T12:27:23Z</time>
      </trkpt>
      <trkpt lat="48.99621" lon="0.19268">
        <ele>182.31</ele>
        <time>2017-10-28T12:27:33Z</time>
      </trkpt>
      <trkpt lat="48.99628" lon="0.19256">
        <ele>182.31</ele>
        <time>2017-10-28T12:27:42Z</time>
      </trkpt>
      <trkpt lat="48.99635" lon="0.19242">
        <ele>182.31</ele>
        <time>2017-10-28T12:27:51Z</time>
      </trkpt>
      <trkpt lat="48.9964" lon="0.19229">
        <ele>181.83</ele>
        <time>2017-10-28T12:28:01Z</time>
      </trkpt>
      <trkpt lat="48.99647" lon="0.19215">
        <ele>181.83</ele>
        <time>2017-10-28T12:28:11Z</time>
      </trkpt>
      <trkpt lat="48.99655" lon="0.19201">
        <ele>181.35</ele>
        <time>2017-10-28T12:28:22Z</time>
      </trkpt>
      <trkpt lat="48.99665" lon="0.19187">
        <ele>181.35</ele>
        <time>2017-10-28T12:28:32Z</time>
      </trkpt>
      <trkpt lat="48.9967" lon="0.1917">
        <ele>180.87</ele>
        <time>2017-10-28T12:28:43Z</time>
      </trkpt>
      <trkpt lat="48.99677" lon="0.19151">
        <ele>180.87</ele>
        <time>2017-10-28T12:28:56Z</time>
      </trkpt>
      <trkpt lat="48.99685" lon="0.19135">
        <ele>181.83</ele>
        <time>2017-10-28T12:29:09Z</time>
      </trkpt>
      <trkpt lat="48.99689" lon="0.19115">
        <ele>181.83</ele>
        <time>2017-10-28T12:29:22Z</time>
      </trkpt>
      <trkpt lat="48.99694" lon="0.1909">
        <ele>182.31</ele>
        <time>2017-10-28T12:29:37Z</time>
      </trkpt>
      <trkpt lat="48.99696" lon="0.19068">
        <ele>182.31</ele>
        <time>2017-10-28T12:29:50Z</time>
      </trkpt>
      <trkpt lat="48.997" lon="0.19047">
        <ele>182.31</ele>
        <time>2017-10-28T12:30:02Z</time>
      </trkpt>
      <trkpt lat="48.99701" lon="0.19026">
        <ele>182.31</ele>
        <time>2017-10-28T12:30:15Z</time>
      </trkpt>
      <trkpt lat="48.99701" lon="0.19004">
        <ele>182.31</ele>
        <time>2017-10-28T12:30:28Z</time>
      </trkpt>
      <trkpt lat="48.99699" lon="0.18982">
        <ele>182.31</ele>
        <time>2017-10-28T12:30:40Z</time>
      </trkpt>
      <trkpt lat="48.99696" lon="0.18962">
        <ele>180.38</ele>
        <time>2017-10-28T12:30:52Z</time>
      </trkpt>
      <trkpt lat="48.99696" lon="0.18942">
        <ele>180.87</ele>
        <time>2017-10-28T12:31:05Z</time>
      </trkpt>
      <trkpt lat="48.99695" lon="0.18917">
        <ele>180.87</ele>
        <time>2017-10-28T12:31:19Z</time>
      </trkpt>
      <trkpt lat="48.99695" lon="0.18897">
        <ele>180.38</ele>
        <time>2017-10-28T12:31:31Z</time>
      </trkpt>
      <trkpt lat="48.99696" lon="0.18873">
        <ele>180.38</ele>
        <time>2017-10-28T12:31:47Z</time>
      </trkpt>
      <trkpt lat="48.99696" lon="0.18851">
        <ele>180.38</ele>
        <time>2017-10-28T12:31:59Z</time>
      </trkpt>
      <trkpt lat="48.99695" lon="0.1883">
        <ele>180.38</ele>
        <time>2017-10-28T12:32:10Z</time>
      </trkpt>
      <trkpt lat="48.99695" lon="0.18811">
        <ele>181.83</ele>
        <time>2017-10-28T12:32:20Z</time>
      </trkpt>
      <trkpt lat="48.99697" lon="0.18791">
        <ele>181.83</ele>
        <time>2017-10-28T12:32:31Z</time>
      </trkpt>
      <trkpt lat="48.99698" lon="0.18771">
        <ele>182.31</ele>
        <time>2017-10-28T12:32:43Z</time>
      </trkpt>
      <trkpt lat="48.99701" lon="0.18749">
        <ele>181.83</ele>
        <time>2017-10-28T12:32:55Z</time>
      </trkpt>
      <trkpt lat="48.99702" lon="0.18731">
        <ele>181.83</ele>
        <time>2017-10-28T12:33:05Z</time>
      </trkpt>
      <trkpt lat="48.99702" lon="0.18712">
        <ele>181.83</ele>
        <time>2017-10-28T12:33:17Z</time>
      </trkpt>
      <trkpt lat="48.99702" lon="0.18693">
        <ele>181.83</ele>
        <time>2017-10-28T12:33:27Z</time>
      </trkpt>
      <trkpt lat="48.997" lon="0.18672">
        <ele>182.31</ele>
        <time>2017-10-28T12:33:39Z</time>
      </trkpt>
      <trkpt lat="48.99698" lon="0.18653">
        <ele>182.31</ele>
        <time>2017-10-28T12:33:50Z</time>
      </trkpt>
      <trkpt lat="48.99695" lon="0.18634">
        <ele>182.31</ele>
        <time>2017-10-28T12:34:01Z</time>
      </trkpt>
      <trkpt lat="48.99693" lon="0.18617">
        <ele>182.79</ele>
        <time>2017-10-28T12:34:12Z</time>
      </trkpt>
      <trkpt lat="48.99693" lon="0.18598">
        <ele>181.35</ele>
        <time>2017-10-28T12:34:23Z</time>
      </trkpt>
      <trkpt lat="48.99694" lon="0.18578">
        <ele>180.87</ele>
        <time>2017-10-28T12:34:34Z</time>
      </trkpt>
      <trkpt lat="48.99696" lon="0.18558">
        <ele>180.87</ele>
        <time>2017-10-28T12:34:45Z</time>
      </trkpt>
      <trkpt lat="48.99698" lon="0.18541">
        <ele>180.87</ele>
        <time>2017-10-28T12:34:55Z</time>
      </trkpt>
      <trkpt lat="48.99701" lon="0.18522">
        <ele>180.87</ele>
        <time>2017-10-28T12:35:05Z</time>
      </trkpt>
      <trkpt lat="48.99703" lon="0.18506">
        <ele>180.87</ele>
        <time>2017-10-28T12:35:15Z</time>
      </trkpt>
      <trkpt lat="48.99708" lon="0.1849">
        <ele>179.9</ele>
        <time>2017-10-28T12:35:25Z</time>
      </trkpt>
      <trkpt lat="48.99715" lon="0.18476">
        <ele>179.42</ele>
        <time>2017-10-28T12:35:35Z</time>
      </trkpt>
      <trkpt lat="48.99724" lon="0.18465">
        <ele>180.87</ele>
        <time>2017-10-28T12:35:44Z</time>
      </trkpt>
      <trkpt lat="48.99733" lon="0.18455">
        <ele>180.87</ele>
        <time>2017-10-28T12:35:54Z</time>
      </trkpt>
      <trkpt lat="48.99742" lon="0.18444">
        <ele>180.87</ele>
        <time>2017-10-28T12:36:04Z</time>
      </trkpt>
      <trkpt lat="48.99752" lon="0.18433">
        <ele>180.87</ele>
        <time>2017-10-28T12:36:14Z</time>
      </trkpt>
      <trkpt lat="48.9976" lon="0.18421">
        <ele>180.38</ele>
        <time>2017-10-28T12:36:24Z</time>
      </trkpt>
      <trkpt lat="48.99769" lon="0.18409">
        <ele>180.38</ele>
        <time>2017-10-28T12:36:34Z</time>
      </trkpt>
      <trkpt lat="48.99776" lon="0.18395">
        <ele>180.38</ele>
        <time>2017-10-28T12:36:44Z</time>
      </trkpt>
      <trkpt lat="48.99782" lon="0.1838">
        <ele>180.38</ele>
        <time>2017-10-28T12:36:54Z</time>
      </trkpt>
      <trkpt lat="48.99789" lon="0.18365">
        <ele>180.38</ele>
        <time>2017-10-28T12:37:05Z</time>
      </trkpt>
      <trkpt lat="48.99797" lon="0.1835">
        <ele>180.38</ele>
        <time>2017-10-28T12:37:16Z</time>
      </trkpt>
      <trkpt lat="48.99805" lon="0.18336">
        <ele>180.38</ele>
        <time>2017-10-28T12:37:27Z</time>
      </trkpt>
      <trkpt lat="48.99813" lon="0.18322">
        <ele>179.9</ele>
        <time>2017-10-28T12:37:37Z</time>
      </trkpt>
      <trkpt lat="48.9982" lon="0.18307">
        <ele>179.9</ele>
        <time>2017-10-28T12:37:48Z</time>
      </trkpt>
      <trkpt lat="48.99827" lon="0.18291">
        <ele>179.9</ele>
        <time>2017-10-28T12:37:58Z</time>
      </trkpt>
      <trkpt lat="48.99833" lon="0.1827">
        <ele>179.9</ele>
        <time>2017-10-28T12:39:01Z</time>
      </trkpt>
      <trkpt lat="48.9985" lon="0.18244">
        <ele>181.35</ele>
        <time>2017-10-28T12:42:08Z</time>
      </trkpt>
      <trkpt lat="48.99847" lon="0.18227">
        <ele>181.35</ele>
        <time>2017-10-28T12:42:27Z</time>
      </trkpt>
      <trkpt lat="48.99854" lon="0.18211">
        <ele>179.9</ele>
        <time>2017-10-28T12:42:42Z</time>
      </trkpt>
      <trkpt lat="48.99863" lon="0.18197">
        <ele>179.9</ele>
        <time>2017-10-28T12:42:57Z</time>
      </trkpt>
      <trkpt lat="48.99871" lon="0.18179">
        <ele>179.9</ele>
        <time>2017-10-28T12:43:13Z</time>
      </trkpt>
      <trkpt lat="48.99878" lon="0.18163">
        <ele>179.42</ele>
        <time>2017-10-28T12:43:26Z</time>
      </trkpt>
      <trkpt lat="48.99885" lon="0.1814">
        <ele>178.94</ele>
        <time>2017-10-28T12:45:23Z</time>
      </trkpt>
      <trkpt lat="48.99896" lon="0.18127">
        <ele>179.42</ele>
        <time>2017-10-28T12:46:56Z</time>
      </trkpt>
      <trkpt lat="48.99903" lon="0.18113">
        <ele>178.94</ele>
        <time>2017-10-28T12:47:10Z</time>
      </trkpt>
      <trkpt lat="48.99911" lon="0.18103">
        <ele>178.94</ele>
        <time>2017-10-28T12:47:21Z</time>
      </trkpt>
      <trkpt lat="48.99919" lon="0.1809">
        <ele>178.46</ele>
        <time>2017-10-28T12:47:32Z</time>
      </trkpt>
      <trkpt lat="48.99927" lon="0.18075">
        <ele>178.46</ele>
        <time>2017-10-28T12:47:44Z</time>
      </trkpt>
      <trkpt lat="48.99935" lon="0.18059">
        <ele>177.5</ele>
        <time>2017-10-28T12:47:55Z</time>
      </trkpt>
      <trkpt lat="48.99945" lon="0.1805">
        <ele>177.02</ele>
        <time>2017-10-28T12:48:08Z</time>
      </trkpt>
      <trkpt lat="48.99956" lon="0.18039">
        <ele>176.06</ele>
        <time>2017-10-28T12:48:20Z</time>
      </trkpt>
      <trkpt lat="48.99966" lon="0.18026">
        <ele>175.1</ele>
        <time>2017-10-28T12:48:33Z</time>
      </trkpt>
      <trkpt lat="48.99977" lon="0.18014">
        <ele>176.06</ele>
        <time>2017-10-28T12:48:45Z</time>
      </trkpt>
      <trkpt lat="48.99988" lon="0.18002">
        <ele>176.06</ele>
        <time>2017-10-28T12:48:58Z</time>
      </trkpt>
      <trkpt lat="48.99999" lon="0.17989">
        <ele>175.58</ele>
        <time>2017-10-28T12:49:10Z</time>
      </trkpt>
      <trkpt lat="49.0001" lon="0.17974">
        <ele>175.58</ele>
        <time>2017-10-28T12:49:24Z</time>
      </trkpt>
      <trkpt lat="49.0002" lon="0.17964">
        <ele>175.58</ele>
        <time>2017-10-28T12:49:36Z</time>
      </trkpt>
      <trkpt lat="49.00033" lon="0.17949">
        <ele>175.1</ele>
        <time>2017-10-28T12:49:51Z</time>
      </trkpt>
      <trkpt lat="49.00044" lon="0.17936">
        <ele>175.1</ele>
        <time>2017-10-28T12:50:03Z</time>
      </trkpt>
      <trkpt lat="49.00057" lon="0.17923">
        <ele>175.58</ele>
        <time>2017-10-28T12:50:16Z</time>
      </trkpt>
      <trkpt lat="49.00067" lon="0.17905">
        <ele>175.58</ele>
        <time>2017-10-28T12:50:28Z</time>
      </trkpt>
      <trkpt lat="49.00074" lon="0.17894">
        <ele>175.1</ele>
        <time>2017-10-28T12:50:38Z</time>
      </trkpt>
      <trkpt lat="49.00083" lon="0.1788">
        <ele>175.1</ele>
        <time>2017-10-28T12:50:49Z</time>
      </trkpt>
      <trkpt lat="49.00094" lon="0.17867">
        <ele>175.1</ele>
        <time>2017-10-28T12:51:01Z</time>
      </trkpt>
      <trkpt lat="49.00105" lon="0.17852">
        <ele>175.1</ele>
        <time>2017-10-28T12:51:14Z</time>
      </trkpt>
      <trkpt lat="49.00114" lon="0.17836">
        <ele>175.1</ele>
        <time>2017-10-28T12:51:26Z</time>
      </trkpt>
      <trkpt lat="49.00123" lon="0.17819">
        <ele>174.62</ele>
        <time>2017-10-28T12:51:38Z</time>
      </trkpt>
      <trkpt lat="49.00132" lon="0.17805">
        <ele>174.62</ele>
        <time>2017-10-28T12:51:50Z</time>
      </trkpt>
      <trkpt lat="49.00142" lon="0.1779">
        <ele>174.62</ele>
        <time>2017-10-28T12:52:03Z</time>
      </trkpt>
      <trkpt lat="49.0015" lon="0.1777">
        <ele>173.17</ele>
        <time>2017-10-28T12:52:16Z</time>
      </trkpt>
      <trkpt lat="49.00158" lon="0.17755">
        <ele>172.21</ele>
        <time>2017-10-28T12:52:28Z</time>
      </trkpt>
      <trkpt lat="49.00168" lon="0.17736">
        <ele>171.73</ele>
        <time>2017-10-28T12:52:43Z</time>
      </trkpt>
      <trkpt lat="49.00175" lon="0.17716">
        <ele>171.73</ele>
        <time>2017-10-28T12:52:55Z</time>
      </trkpt>
      <trkpt lat="49.00184" lon="0.17697">
        <ele>171.25</ele>
        <time>2017-10-28T12:53:08Z</time>
      </trkpt>
      <trkpt lat="49.00195" lon="0.17677">
        <ele>170.29</ele>
        <time>2017-10-28T12:53:23Z</time>
      </trkpt>
      <trkpt lat="49.0021" lon="0.17663">
        <ele>170.29</ele>
        <time>2017-10-28T12:53:39Z</time>
      </trkpt>
      <trkpt lat="49.00223" lon="0.1765">
        <ele>170.29</ele>
        <time>2017-10-28T12:53:52Z</time>
      </trkpt>
      <trkpt lat="49.00238" lon="0.17635">
        <ele>169.81</ele>
        <time>2017-10-28T12:54:07Z</time>
      </trkpt>
      <trkpt lat="49.00252" lon="0.17619">
        <ele>169.81</ele>
        <time>2017-10-28T12:54:22Z</time>
      </trkpt>
      <trkpt lat="49.00263" lon="0.17607">
        <ele>169.33</ele>
        <time>2017-10-28T12:54:34Z</time>
      </trkpt>
      <trkpt lat="49.00276" lon="0.17595">
        <ele>168.85</ele>
        <time>2017-10-28T12:54:47Z</time>
      </trkpt>
      <trkpt lat="49.00291" lon="0.1758">
        <ele>168.37</ele>
        <time>2017-10-28T12:55:03Z</time>
      </trkpt>
      <trkpt lat="49.00308" lon="0.17564">
        <ele>167.89</ele>
        <time>2017-10-28T12:55:24Z</time>
      </trkpt>
      <trkpt lat="49.00327" lon="0.17548">
        <ele>167.41</ele>
        <time>2017-10-28T12:56:02Z</time>
      </trkpt>
      <trkpt lat="49.00337" lon="0.17541">
        <ele>167.41</ele>
        <time>2017-10-28T12:56:14Z</time>
      </trkpt>
      <trkpt lat="49.00348" lon="0.17545">
        <ele>167.41</ele>
        <time>2017-10-28T12:56:33Z</time>
      </trkpt>
      <trkpt lat="49.0036" lon="0.17564">
        <ele>167.41</ele>
        <time>2017-10-28T12:57:05Z</time>
      </trkpt>
      <trkpt lat="49.00375" lon="0.17579">
        <ele>168.85</ele>
        <time>2017-10-28T12:57:24Z</time>
      </trkpt>
      <trkpt lat="49.00385" lon="0.17593">
        <ele>169.33</ele>
        <time>2017-10-28T12:57:37Z</time>
      </trkpt>
      <trkpt lat="49.00394" lon="0.17608">
        <ele>169.81</ele>
        <time>2017-10-28T12:57:50Z</time>
      </trkpt>
      <trkpt lat="49.00403" lon="0.17624">
        <ele>170.77</ele>
        <time>2017-10-28T12:58:03Z</time>
      </trkpt>
      <trkpt lat="49.00413" lon="0.17637">
        <ele>170.77</ele>
        <time>2017-10-28T12:58:16Z</time>
      </trkpt>
      <trkpt lat="49.00423" lon="0.17651">
        <ele>171.25</ele>
        <time>2017-10-28T12:58:29Z</time>
      </trkpt>
      <trkpt lat="49.00433" lon="0.17666">
        <ele>171.25</ele>
        <time>2017-10-28T12:58:42Z</time>
      </trkpt>
      <trkpt lat="49.00442" lon="0.1768">
        <ele>171.73</ele>
        <time>2017-10-28T12:58:53Z</time>
      </trkpt>
      <trkpt lat="49.00451" lon="0.17694">
        <ele>172.21</ele>
        <time>2017-10-28T12:59:03Z</time>
      </trkpt>
      <trkpt lat="49.00459" lon="0.17708">
        <ele>172.69</ele>
        <time>2017-10-28T12:59:14Z</time>
      </trkpt>
      <trkpt lat="49.00467" lon="0.17721">
        <ele>173.17</ele>
        <time>2017-10-28T12:59:25Z</time>
      </trkpt>
      <trkpt lat="49.00476" lon="0.17736">
        <ele>173.17</ele>
        <time>2017-10-28T12:59:36Z</time>
      </trkpt>
      <trkpt lat="49.00484" lon="0.17748">
        <ele>173.17</ele>
        <time>2017-10-28T12:59:47Z</time>
      </trkpt>
      <trkpt lat="49.00494" lon="0.1776">
        <ele>173.66</ele>
        <time>2017-10-28T12:59:57Z</time>
      </trkpt>
      <trkpt lat="49.00503" lon="0.17774">
        <ele>174.14</ele>
        <time>2017-10-28T13:00:07Z</time>
      </trkpt>
      <trkpt lat="49.00511" lon="0.17786">
        <ele>174.62</ele>
        <time>2017-10-28T13:00:17Z</time>
      </trkpt>
      <trkpt lat="49.00518" lon="0.17798">
        <ele>174.62</ele>
        <time>2017-10-28T13:00:27Z</time>
      </trkpt>
      <trkpt lat="49.00524" lon="0.17813">
        <ele>174.62</ele>
        <time>2017-10-28T13:00:37Z</time>
      </trkpt>
      <trkpt lat="49.00529" lon="0.1783">
        <ele>175.1</ele>
        <time>2017-10-28T13:00:48Z</time>
      </trkpt>
      <trkpt lat="49.00533" lon="0.17844">
        <ele>175.58</ele>
        <time>2017-10-28T13:00:58Z</time>
      </trkpt>
      <trkpt lat="49.00535" lon="0.17859">
        <ele>175.58</ele>
        <time>2017-10-28T13:01:07Z</time>
      </trkpt>
      <trkpt lat="49.00537" lon="0.17875">
        <ele>175.58</ele>
        <time>2017-10-28T13:01:16Z</time>
      </trkpt>
      <trkpt lat="49.00538" lon="0.17892">
        <ele>176.06</ele>
        <time>2017-10-28T13:01:27Z</time>
      </trkpt>
      <trkpt lat="49.00539" lon="0.17909">
        <ele>176.06</ele>
        <time>2017-10-28T13:01:37Z</time>
      </trkpt>
      <trkpt lat="49.0054" lon="0.17924">
        <ele>176.06</ele>
        <time>2017-10-28T13:01:47Z</time>
      </trkpt>
      <trkpt lat="49.00541" lon="0.1794">
        <ele>176.54</ele>
        <time>2017-10-28T13:01:57Z</time>
      </trkpt>
      <trkpt lat="49.00542" lon="0.17955">
        <ele>176.54</ele>
        <time>2017-10-28T13:02:06Z</time>
      </trkpt>
      <trkpt lat="49.00544" lon="0.17974">
        <ele>176.54</ele>
        <time>2017-10-28T13:02:16Z</time>
      </trkpt>
      <trkpt lat="49.00546" lon="0.17991">
        <ele>176.54</ele>
        <time>2017-10-28T13:02:26Z</time>
      </trkpt>
      <trkpt lat="49.00544" lon="0.18007">
        <ele>176.54</ele>
        <time>2017-10-28T13:02:35Z</time>
      </trkpt>
      <trkpt lat="49.0054" lon="0.18024">
        <ele>176.54</ele>
        <time>2017-10-28T13:02:44Z</time>
      </trkpt>
      <trkpt lat="49.00538" lon="0.18039">
        <ele>177.02</ele>
        <time>2017-10-28T13:02:52Z</time>
      </trkpt>
      <trkpt lat="49.00536" lon="0.18055">
        <ele>177.02</ele>
        <time>2017-10-28T13:03:02Z</time>
      </trkpt>
      <trkpt lat="49.00534" lon="0.18071">
        <ele>177.5</ele>
        <time>2017-10-28T13:03:12Z</time>
      </trkpt>
      <trkpt lat="49.00533" lon="0.18088">
        <ele>177.5</ele>
        <time>2017-10-28T13:03:23Z</time>
      </trkpt>
      <trkpt lat="49.00531" lon="0.18104">
        <ele>177.98</ele>
        <time>2017-10-28T13:03:33Z</time>
      </trkpt>
      <trkpt lat="49.00529" lon="0.18119">
        <ele>178.46</ele>
        <time>2017-10-28T13:03:42Z</time>
      </trkpt>
      <trkpt lat="49.00527" lon="0.18135">
        <ele>178.46</ele>
        <time>2017-10-28T13:03:51Z</time>
      </trkpt>
      <trkpt lat="49.00525" lon="0.18151">
        <ele>178.46</ele>
        <time>2017-10-28T13:04:00Z</time>
      </trkpt>
      <trkpt lat="49.00524" lon="0.18166">
        <ele>178.46</ele>
        <time>2017-10-28T13:04:09Z</time>
      </trkpt>
      <trkpt lat="49.00522" lon="0.18182">
        <ele>178.46</ele>
        <time>2017-10-28T13:04:20Z</time>
      </trkpt>
      <trkpt lat="49.0052" lon="0.18199">
        <ele>178.94</ele>
        <time>2017-10-28T13:04:30Z</time>
      </trkpt>
      <trkpt lat="49.00517" lon="0.18214">
        <ele>179.42</ele>
        <time>2017-10-28T13:04:40Z</time>
      </trkpt>
      <trkpt lat="49.00515" lon="0.18229">
        <ele>179.42</ele>
        <time>2017-10-28T13:04:49Z</time>
      </trkpt>
      <trkpt lat="49.00513" lon="0.18246">
        <ele>179.42</ele>
        <time>2017-10-28T13:04:59Z</time>
      </trkpt>
      <trkpt lat="49.00511" lon="0.18263">
        <ele>179.42</ele>
        <time>2017-10-28T13:05:09Z</time>
      </trkpt>
      <trkpt lat="49.00509" lon="0.1828">
        <ele>179.42</ele>
        <time>2017-10-28T13:05:19Z</time>
      </trkpt>
      <trkpt lat="49.00506" lon="0.18297">
        <ele>179.9</ele>
        <time>2017-10-28T13:05:29Z</time>
      </trkpt>
      <trkpt lat="49.00505" lon="0.18313">
        <ele>180.38</ele>
        <time>2017-10-28T13:05:39Z</time>
      </trkpt>
      <trkpt lat="49.00505" lon="0.1833">
        <ele>180.38</ele>
        <time>2017-10-28T13:05:49Z</time>
      </trkpt>
      <trkpt lat="49.00503" lon="0.18347">
        <ele>180.38</ele>
        <time>2017-10-28T13:05:59Z</time>
      </trkpt>
      <trkpt lat="49.00503" lon="0.18363">
        <ele>180.38</ele>
        <time>2017-10-28T13:06:09Z</time>
      </trkpt>
      <trkpt lat="49.00501" lon="0.1838">
        <ele>180.38</ele>
        <time>2017-10-28T13:06:19Z</time>
      </trkpt>
      <trkpt lat="49.00499" lon="0.18395">
        <ele>180.87</ele>
        <time>2017-10-28T13:06:29Z</time>
      </trkpt>
      <trkpt lat="49.00498" lon="0.18411">
        <ele>180.87</ele>
        <time>2017-10-28T13:06:39Z</time>
      </trkpt>
      <trkpt lat="49.00495" lon="0.18426">
        <ele>180.87</ele>
        <time>2017-10-28T13:06:48Z</time>
      </trkpt>
      <trkpt lat="49.00493" lon="0.18443">
        <ele>180.87</ele>
        <time>2017-10-28T13:06:58Z</time>
      </trkpt>
      <trkpt lat="49.00491" lon="0.18458">
        <ele>180.87</ele>
        <time>2017-10-28T13:07:08Z</time>
      </trkpt>
      <trkpt lat="49.0049" lon="0.18474">
        <ele>180.87</ele>
        <time>2017-10-28T13:07:18Z</time>
      </trkpt>
      <trkpt lat="49.00488" lon="0.18491">
        <ele>180.87</ele>
        <time>2017-10-28T13:07:29Z</time>
      </trkpt>
      <trkpt lat="49.00486" lon="0.18509">
        <ele>180.87</ele>
        <time>2017-10-28T13:07:40Z</time>
      </trkpt>
      <trkpt lat="49.00486" lon="0.18525">
        <ele>180.87</ele>
        <time>2017-10-28T13:07:51Z</time>
      </trkpt>
      <trkpt lat="49.00485" lon="0.18542">
        <ele>180.87</ele>
        <time>2017-10-28T13:08:01Z</time>
      </trkpt>
      <trkpt lat="49.00487" lon="0.18563">
        <ele>180.87</ele>
        <time>2017-10-28T13:08:13Z</time>
      </trkpt>
      <trkpt lat="49.00487" lon="0.18582">
        <ele>180.87</ele>
        <time>2017-10-28T13:08:24Z</time>
      </trkpt>
      <trkpt lat="49.00488" lon="0.18602">
        <ele>180.87</ele>
        <time>2017-10-28T13:08:36Z</time>
      </trkpt>
      <trkpt lat="49.00488" lon="0.18619">
        <ele>180.87</ele>
        <time>2017-10-28T13:08:47Z</time>
      </trkpt>
      <trkpt lat="49.00488" lon="0.18636">
        <ele>181.35</ele>
        <time>2017-10-28T13:08:57Z</time>
      </trkpt>
      <trkpt lat="49.0049" lon="0.18652">
        <ele>181.35</ele>
        <time>2017-10-28T13:09:08Z</time>
      </trkpt>
      <trkpt lat="49.00492" lon="0.18671">
        <ele>181.35</ele>
        <time>2017-10-28T13:09:18Z</time>
      </trkpt>
      <trkpt lat="49.00493" lon="0.18688">
        <ele>181.35</ele>
        <time>2017-10-28T13:09:28Z</time>
      </trkpt>
      <trkpt lat="49.00493" lon="0.18705">
        <ele>181.35</ele>
        <time>2017-10-28T13:09:39Z</time>
      </trkpt>
      <trkpt lat="49.00493" lon="0.18724">
        <ele>181.35</ele>
        <time>2017-10-28T13:09:49Z</time>
      </trkpt>
      <trkpt lat="49.00493" lon="0.18741">
        <ele>181.35</ele>
        <time>2017-10-28T13:09:59Z</time>
      </trkpt>
      <trkpt lat="49.00493" lon="0.18757">
        <ele>181.35</ele>
        <time>2017-10-28T13:10:09Z</time>
      </trkpt>
      <trkpt lat="49.00492" lon="0.18776">
        <ele>181.35</ele>
        <time>2017-10-28T13:10:20Z</time>
      </trkpt>
      <trkpt lat="49.00492" lon="0.18797">
        <ele>181.35</ele>
        <time>2017-10-28T13:10:33Z</time>
      </trkpt>
      <trkpt lat="49.00492" lon="0.18815">
        <ele>181.35</ele>
        <time>2017-10-28T13:10:44Z</time>
      </trkpt>
      <trkpt lat="49.00491" lon="0.18833">
        <ele>181.35</ele>
        <time>2017-10-28T13:10:56Z</time>
      </trkpt>
      <trkpt lat="49.0049" lon="0.18851">
        <ele>181.35</ele>
        <time>2017-10-28T13:11:07Z</time>
      </trkpt>
      <trkpt lat="49.00488" lon="0.18872">
        <ele>181.35</ele>
        <time>2017-10-28T13:11:20Z</time>
      </trkpt>
      <trkpt lat="49.00486" lon="0.1889">
        <ele>181.83</ele>
        <time>2017-10-28T13:11:31Z</time>
      </trkpt>
      <trkpt lat="49.00482" lon="0.1891">
        <ele>181.83</ele>
        <time>2017-10-28T13:11:43Z</time>
      </trkpt>
      <trkpt lat="49.00476" lon="0.18929">
        <ele>181.83</ele>
        <time>2017-10-28T13:11:55Z</time>
      </trkpt>
      <trkpt lat="49.0047" lon="0.18945">
        <ele>181.83</ele>
        <time>2017-10-28T13:12:06Z</time>
      </trkpt>
      <trkpt lat="49.00465" lon="0.18962">
        <ele>182.31</ele>
        <time>2017-10-28T13:12:17Z</time>
      </trkpt>
      <trkpt lat="49.00462" lon="0.18978">
        <ele>182.79</ele>
        <time>2017-10-28T13:17:21Z</time>
      </trkpt>
      <trkpt lat="49.00456" lon="0.18994">
        <ele>183.27</ele>
        <time>2017-10-28T13:17:39Z</time>
      </trkpt>
      <trkpt lat="49.00452" lon="0.19011">
        <ele>183.27</ele>
        <time>2017-10-28T13:17:51Z</time>
      </trkpt>
      <trkpt lat="49.00449" lon="0.19027">
        <ele>183.27</ele>
        <time>2017-10-28T13:18:02Z</time>
      </trkpt>
      <trkpt lat="49.00445" lon="0.19046">
        <ele>182.79</ele>
        <time>2017-10-28T13:18:16Z</time>
      </trkpt>
      <trkpt lat="49.00442" lon="0.19066">
        <ele>182.79</ele>
        <time>2017-10-28T13:18:28Z</time>
      </trkpt>
      <trkpt lat="49.00439" lon="0.19085">
        <ele>182.79</ele>
        <time>2017-10-28T13:18:39Z</time>
      </trkpt>
      <trkpt lat="49.00436" lon="0.19103">
        <ele>182.79</ele>
        <time>2017-10-28T13:18:50Z</time>
      </trkpt>
      <trkpt lat="49.00435" lon="0.19119">
        <ele>182.79</ele>
        <time>2017-10-28T13:19:00Z</time>
      </trkpt>
      <trkpt lat="49.00433" lon="0.1914">
        <ele>182.79</ele>
        <time>2017-10-28T13:19:13Z</time>
      </trkpt>
      <trkpt lat="49.00431" lon="0.19159">
        <ele>182.79</ele>
        <time>2017-10-28T13:19:24Z</time>
      </trkpt>
      <trkpt lat="49.00429" lon="0.19178">
        <ele>183.75</ele>
        <time>2017-10-28T13:19:36Z</time>
      </trkpt>
      <trkpt lat="49.00427" lon="0.19197">
        <ele>183.75</ele>
        <time>2017-10-28T13:19:48Z</time>
      </trkpt>
      <trkpt lat="49.00424" lon="0.19219">
        <ele>183.75</ele>
        <time>2017-10-28T13:20:02Z</time>
      </trkpt>
      <trkpt lat="49.00421" lon="0.19239">
        <ele>184.23</ele>
        <time>2017-10-28T13:20:13Z</time>
      </trkpt>
      <trkpt lat="49.00418" lon="0.19261">
        <ele>184.23</ele>
        <time>2017-10-28T13:20:27Z</time>
      </trkpt>
      <trkpt lat="49.00415" lon="0.19283">
        <ele>184.23</ele>
        <time>2017-10-28T13:20:40Z</time>
      </trkpt>
      <trkpt lat="49.00412" lon="0.19303">
        <ele>184.23</ele>
        <time>2017-10-28T13:20:52Z</time>
      </trkpt>
      <trkpt lat="49.0041" lon="0.19323">
        <ele>184.23</ele>
        <time>2017-10-28T13:21:03Z</time>
      </trkpt>
      <trkpt lat="49.00407" lon="0.19342">
        <ele>183.75</ele>
        <time>2017-10-28T13:21:15Z</time>
      </trkpt>
      <trkpt lat="49.00406" lon="0.1936">
        <ele>183.75</ele>
        <time>2017-10-28T13:21:27Z</time>
      </trkpt>
      <trkpt lat="49.00405" lon="0.19382">
        <ele>183.75</ele>
        <time>2017-10-28T13:21:39Z</time>
      </trkpt>
      <trkpt lat="49.00403" lon="0.19404">
        <ele>183.75</ele>
        <time>2017-10-28T13:21:52Z</time>
      </trkpt>
      <trkpt lat="49.00403" lon="0.19423">
        <ele>184.23</ele>
        <time>2017-10-28T13:22:03Z</time>
      </trkpt>
      <trkpt lat="49.00404" lon="0.19443">
        <ele>184.23</ele>
        <time>2017-10-28T13:22:15Z</time>
      </trkpt>
      <trkpt lat="49.00406" lon="0.19462">
        <ele>184.23</ele>
        <time>2017-10-28T13:22:27Z</time>
      </trkpt>
      <trkpt lat="49.00408" lon="0.1948">
        <ele>184.23</ele>
        <time>2017-10-28T13:22:37Z</time>
      </trkpt>
      <trkpt lat="49.00409" lon="0.19497">
        <ele>184.23</ele>
        <time>2017-10-28T13:22:46Z</time>
      </trkpt>
      <trkpt lat="49.0041" lon="0.19512">
        <ele>184.23</ele>
        <time>2017-10-28T13:22:55Z</time>
      </trkpt>
      <trkpt lat="49.00411" lon="0.19529">
        <ele>183.75</ele>
        <time>2017-10-28T13:23:05Z</time>
      </trkpt>
      <trkpt lat="49.00411" lon="0.19545">
        <ele>183.75</ele>
        <time>2017-10-28T13:23:14Z</time>
      </trkpt>
      <trkpt lat="49.00411" lon="0.19561">
        <ele>183.75</ele>
        <time>2017-10-28T13:23:23Z</time>
      </trkpt>
      <trkpt lat="49.00412" lon="0.19576">
        <ele>183.75</ele>
        <time>2017-10-28T13:23:31Z</time>
      </trkpt>
      <trkpt lat="49.00412" lon="0.19591">
        <ele>183.75</ele>
        <time>2017-10-28T13:23:40Z</time>
      </trkpt>
      <trkpt lat="49.00411" lon="0.19606">
        <ele>183.75</ele>
        <time>2017-10-28T13:23:49Z</time>
      </trkpt>
      <trkpt lat="49.00411" lon="0.1962">
        <ele>182.79</ele>
        <time>2017-10-28T13:23:58Z</time>
      </trkpt>
      <trkpt lat="49.00411" lon="0.19635">
        <ele>182.79</ele>
        <time>2017-10-28T13:24:07Z</time>
      </trkpt>
      <trkpt lat="49.00411" lon="0.19651">
        <ele>182.79</ele>
        <time>2017-10-28T13:24:16Z</time>
      </trkpt>
      <trkpt lat="49.0041" lon="0.19666">
        <ele>182.79</ele>
        <time>2017-10-28T13:24:25Z</time>
      </trkpt>
      <trkpt lat="49.00411" lon="0.19682">
        <ele>182.79</ele>
        <time>2017-10-28T13:24:36Z</time>
      </trkpt>
      <trkpt lat="49.00411" lon="0.19699">
        <ele>182.79</ele>
        <time>2017-10-28T13:24:46Z</time>
      </trkpt>
      <trkpt lat="49.0041" lon="0.19718">
        <ele>182.79</ele>
        <time>2017-10-28T13:24:57Z</time>
      </trkpt>
      <trkpt lat="49.00408" lon="0.19736">
        <ele>182.31</ele>
        <time>2017-10-28T13:25:08Z</time>
      </trkpt>
      <trkpt lat="49.00406" lon="0.19753">
        <ele>182.31</ele>
        <time>2017-10-28T13:25:17Z</time>
      </trkpt>
      <trkpt lat="49.00405" lon="0.1977">
        <ele>182.31</ele>
        <time>2017-10-28T13:25:26Z</time>
      </trkpt>
      <trkpt lat="49.00402" lon="0.19786">
        <ele>182.31</ele>
        <time>2017-10-28T13:25:36Z</time>
      </trkpt>
      <trkpt lat="49.00399" lon="0.19805">
        <ele>182.31</ele>
        <time>2017-10-28T13:25:47Z</time>
      </trkpt>
      <trkpt lat="49.00396" lon="0.1982">
        <ele>182.31</ele>
        <time>2017-10-28T13:25:55Z</time>
      </trkpt>
      <trkpt lat="49.00394" lon="0.19837">
        <ele>182.31</ele>
        <time>2017-10-28T13:26:05Z</time>
      </trkpt>
      <trkpt lat="49.00392" lon="0.19854">
        <ele>182.31</ele>
        <time>2017-10-28T13:26:14Z</time>
      </trkpt>
      <trkpt lat="49.0039" lon="0.19868">
        <ele>182.31</ele>
        <time>2017-10-28T13:26:22Z</time>
      </trkpt>
      <trkpt lat="49.00387" lon="0.19883">
        <ele>182.31</ele>
        <time>2017-10-28T13:26:31Z</time>
      </trkpt>
      <trkpt lat="49.00383" lon="0.19899">
        <ele>182.31</ele>
        <time>2017-10-28T13:26:41Z</time>
      </trkpt>
      <trkpt lat="49.0038" lon="0.19914">
        <ele>183.27</ele>
        <time>2017-10-28T13:26:50Z</time>
      </trkpt>
      <trkpt lat="49.00378" lon="0.19929">
        <ele>183.27</ele>
        <time>2017-10-28T13:27:00Z</time>
      </trkpt>
      <trkpt lat="49.00373" lon="0.19948">
        <ele>183.75</ele>
        <time>2017-10-28T13:27:14Z</time>
      </trkpt>
      <trkpt lat="49.00367" lon="0.19963">
        <ele>183.75</ele>
        <time>2017-10-28T13:27:24Z</time>
      </trkpt>
      <trkpt lat="49.00363" lon="0.19979">
        <ele>184.23</ele>
        <time>2017-10-28T13:27:35Z</time>
      </trkpt>
      <trkpt lat="49.00358" lon="0.19994">
        <ele>184.71</ele>
        <time>2017-10-28T13:27:46Z</time>
      </trkpt>
      <trkpt lat="49.00353" lon="0.20012">
        <ele>185.19</ele>
        <time>2017-10-28T13:27:57Z</time>
      </trkpt>
      <trkpt lat="49.00349" lon="0.20028">
        <ele>185.67</ele>
        <time>2017-10-28T13:28:08Z</time>
      </trkpt>
      <trkpt lat="49.00345" lon="0.20046">
        <ele>185.67</ele>
        <time>2017-10-28T13:28:18Z</time>
      </trkpt>
      <trkpt lat="49.00342" lon="0.20061">
        <ele>186.15</ele>
        <time>2017-10-28T13:28:27Z</time>
      </trkpt>
      <trkpt lat="49.00339" lon="0.20076">
        <ele>186.15</ele>
        <time>2017-10-28T13:28:36Z</time>
      </trkpt>
      <trkpt lat="49.00335" lon="0.20091">
        <ele>186.63</ele>
        <time>2017-10-28T13:28:47Z</time>
      </trkpt>
      <trkpt lat="49.00332" lon="0.20106">
        <ele>187.11</ele>
        <time>2017-10-28T13:28:58Z</time>
      </trkpt>
      <trkpt lat="49.00328" lon="0.20123">
        <ele>187.59</ele>
        <time>2017-10-28T13:29:09Z</time>
      </trkpt>
      <trkpt lat="49.00325" lon="0.20139">
        <ele>187.59</ele>
        <time>2017-10-28T13:29:20Z</time>
      </trkpt>
      <trkpt lat="49.00321" lon="0.20154">
        <ele>187.59</ele>
        <time>2017-10-28T13:29:30Z</time>
      </trkpt>
      <trkpt lat="49.00316" lon="0.2017">
        <ele>187.59</ele>
        <time>2017-10-28T13:29:41Z</time>
      </trkpt>
      <trkpt lat="49.00312" lon="0.20186">
        <ele>187.59</ele>
        <time>2017-10-28T13:29:51Z</time>
      </trkpt>
      <trkpt lat="49.00307" lon="0.20205">
        <ele>187.59</ele>
        <time>2017-10-28T13:30:06Z</time>
      </trkpt>
      <trkpt lat="49.00302" lon="0.20224">
        <ele>187.59</ele>
        <time>2017-10-28T13:30:17Z</time>
      </trkpt>
      <trkpt lat="49.00296" lon="0.20239">
        <ele>187.59</ele>
        <time>2017-10-28T13:30:27Z</time>
      </trkpt>
      <trkpt lat="49.00291" lon="0.20256">
        <ele>187.59</ele>
        <time>2017-10-28T13:30:38Z</time>
      </trkpt>
      <trkpt lat="49.00287" lon="0.20274">
        <ele>187.11</ele>
        <time>2017-10-28T13:30:48Z</time>
      </trkpt>
      <trkpt lat="49.00282" lon="0.2029">
        <ele>187.11</ele>
        <time>2017-10-28T13:30:57Z</time>
      </trkpt>
      <trkpt lat="49.00278" lon="0.20306">
        <ele>187.11</ele>
        <time>2017-10-28T13:31:06Z</time>
      </trkpt>
      <trkpt lat="49.00276" lon="0.20322">
        <ele>187.11</ele>
        <time>2017-10-28T13:31:15Z</time>
      </trkpt>
      <trkpt lat="49.00272" lon="0.20336">
        <ele>187.11</ele>
        <time>2017-10-28T13:31:24Z</time>
      </trkpt>
      <trkpt lat="49.00269" lon="0.20351">
        <ele>187.11</ele>
        <time>2017-10-28T13:31:33Z</time>
      </trkpt>
      <trkpt lat="49.00267" lon="0.20365">
        <ele>187.11</ele>
        <time>2017-10-28T13:31:42Z</time>
      </trkpt>
      <trkpt lat="49.00264" lon="0.20381">
        <ele>187.11</ele>
        <time>2017-10-28T13:31:52Z</time>
      </trkpt>
      <trkpt lat="49.00261" lon="0.20396">
        <ele>187.11</ele>
        <time>2017-10-28T13:32:01Z</time>
      </trkpt>
      <trkpt lat="49.00258" lon="0.20411">
        <ele>187.59</ele>
        <time>2017-10-28T13:32:10Z</time>
      </trkpt>
      <trkpt lat="49.00255" lon="0.20426">
        <ele>187.11</ele>
        <time>2017-10-28T13:32:19Z</time>
      </trkpt>
      <trkpt lat="49.00252" lon="0.2044">
        <ele>187.59</ele>
        <time>2017-10-28T13:32:28Z</time>
      </trkpt>
      <trkpt lat="49.00247" lon="0.20454">
        <ele>187.11</ele>
        <time>2017-10-28T13:32:38Z</time>
      </trkpt>
      <trkpt lat="49.00243" lon="0.20467">
        <ele>187.59</ele>
        <time>2017-10-28T13:32:48Z</time>
      </trkpt>
      <trkpt lat="49.00237" lon="0.20483">
        <ele>187.59</ele>
        <time>2017-10-28T13:32:58Z</time>
      </trkpt>
      <trkpt lat="49.00233" lon="0.20496">
        <ele>187.59</ele>
        <time>2017-10-28T13:33:07Z</time>
      </trkpt>
      <trkpt lat="49.00228" lon="0.20511">
        <ele>187.59</ele>
        <time>2017-10-28T13:33:18Z</time>
      </trkpt>
      <trkpt lat="49.00227" lon="0.20526">
        <ele>187.59</ele>
        <time>2017-10-28T13:33:27Z</time>
      </trkpt>
      <trkpt lat="49.00226" lon="0.20541">
        <ele>187.59</ele>
        <time>2017-10-28T13:33:37Z</time>
      </trkpt>
      <trkpt lat="49.00224" lon="0.20558">
        <ele>187.59</ele>
        <time>2017-10-28T13:33:48Z</time>
      </trkpt>
      <trkpt lat="49.00223" lon="0.20571">
        <ele>187.59</ele>
        <time>2017-10-28T13:33:57Z</time>
      </trkpt>
      <trkpt lat="49.00222" lon="0.20586">
        <ele>187.59</ele>
        <time>2017-10-28T13:34:06Z</time>
      </trkpt>
      <trkpt lat="49.00221" lon="0.20601">
        <ele>186.63</ele>
        <time>2017-10-28T13:34:17Z</time>
      </trkpt>
      <trkpt lat="49.00219" lon="0.20618">
        <ele>186.63</ele>
        <time>2017-10-28T13:34:28Z</time>
      </trkpt>
      <trkpt lat="49.00218" lon="0.20633">
        <ele>186.63</ele>
        <time>2017-10-28T13:34:37Z</time>
      </trkpt>
      <trkpt lat="49.00217" lon="0.20648">
        <ele>186.15</ele>
        <time>2017-10-28T13:34:45Z</time>
      </trkpt>
      <trkpt lat="49.00216" lon="0.20663">
        <ele>186.15</ele>
        <time>2017-10-28T13:34:53Z</time>
      </trkpt>
      <trkpt lat="49.00216" lon="0.2068">
        <ele>186.15</ele>
        <time>2017-10-28T13:35:02Z</time>
      </trkpt>
      <trkpt lat="49.00215" lon="0.20697">
        <ele>186.15</ele>
        <time>2017-10-28T13:35:11Z</time>
      </trkpt>
      <trkpt lat="49.00214" lon="0.20713">
        <ele>186.15</ele>
        <time>2017-10-28T13:35:21Z</time>
      </trkpt>
      <trkpt lat="49.00214" lon="0.20732">
        <ele>186.15</ele>
        <time>2017-10-28T13:35:31Z</time>
      </trkpt>
      <trkpt lat="49.00214" lon="0.2075">
        <ele>186.15</ele>
        <time>2017-10-28T13:35:41Z</time>
      </trkpt>
      <trkpt lat="49.00213" lon="0.20766">
        <ele>185.67</ele>
        <time>2017-10-28T13:35:49Z</time>
      </trkpt>
      <trkpt lat="49.00212" lon="0.20781">
        <ele>185.67</ele>
        <time>2017-10-28T13:35:58Z</time>
      </trkpt>
      <trkpt lat="49.0021" lon="0.20796">
        <ele>185.67</ele>
        <time>2017-10-28T13:36:07Z</time>
      </trkpt>
      <trkpt lat="49.00204" lon="0.20809">
        <ele>185.67</ele>
        <time>2017-10-28T13:36:16Z</time>
      </trkpt>
      <trkpt lat="49.00194" lon="0.20817">
        <ele>185.67</ele>
        <time>2017-10-28T13:36:27Z</time>
      </trkpt>
      <trkpt lat="49.00184" lon="0.20826">
        <ele>187.11</ele>
        <time>2017-10-28T13:43:15Z</time>
      </trkpt>
      <trkpt lat="49.00171" lon="0.2083">
        <ele>187.11</ele>
        <time>2017-10-28T13:43:30Z</time>
      </trkpt>
      <trkpt lat="49.00159" lon="0.20825">
        <ele>187.59</ele>
        <time>2017-10-28T13:43:43Z</time>
      </trkpt>
      <trkpt lat="49.00149" lon="0.20821">
        <ele>187.59</ele>
        <time>2017-10-28T13:43:55Z</time>
      </trkpt>
      <trkpt lat="49.00138" lon="0.20816">
        <ele>187.59</ele>
        <time>2017-10-28T13:44:06Z</time>
      </trkpt>
      <trkpt lat="49.00127" lon="0.20811">
        <ele>187.59</ele>
        <time>2017-10-28T13:44:18Z</time>
      </trkpt>
      <trkpt lat="49.00116" lon="0.20806">
        <ele>188.08</ele>
        <time>2017-10-28T13:44:30Z</time>
      </trkpt>
      <trkpt lat="49.00105" lon="0.20801">
        <ele>188.08</ele>
        <time>2017-10-28T13:44:40Z</time>
      </trkpt>
      <trkpt lat="49.00094" lon="0.20798">
        <ele>188.56</ele>
        <time>2017-10-28T13:44:50Z</time>
      </trkpt>
      <trkpt lat="49.00083" lon="0.20796">
        <ele>188.56</ele>
        <time>2017-10-28T13:45:00Z</time>
      </trkpt>
      <trkpt lat="49.00072" lon="0.20796">
        <ele>189.04</ele>
        <time>2017-10-28T13:45:09Z</time>
      </trkpt>
      <trkpt lat="49.00063" lon="0.20796">
        <ele>189.04</ele>
        <time>2017-10-28T13:45:18Z</time>
      </trkpt>
      <trkpt lat="49.00053" lon="0.20799">
        <ele>189.04</ele>
        <time>2017-10-28T13:45:27Z</time>
      </trkpt>
      <trkpt lat="49.00043" lon="0.208">
        <ele>189.04</ele>
        <time>2017-10-28T13:45:36Z</time>
      </trkpt>
      <trkpt lat="49.00034" lon="0.20802">
        <ele>189.04</ele>
        <time>2017-10-28T13:45:45Z</time>
      </trkpt>
      <trkpt lat="49.00025" lon="0.20804">
        <ele>189.04</ele>
        <time>2017-10-28T13:45:54Z</time>
      </trkpt>
      <trkpt lat="49.00015" lon="0.20806">
        <ele>189.04</ele>
        <time>2017-10-28T13:46:03Z</time>
      </trkpt>
      <trkpt lat="49.00005" lon="0.20809">
        <ele>189.04</ele>
        <time>2017-10-28T13:46:13Z</time>
      </trkpt>
      <trkpt lat="48.99994" lon="0.20813">
        <ele>189.04</ele>
        <time>2017-10-28T13:46:23Z</time>
      </trkpt>
      <trkpt lat="48.99983" lon="0.20816">
        <ele>189.52</ele>
        <time>2017-10-28T13:46:33Z</time>
      </trkpt>
      <trkpt lat="48.99973" lon="0.20819">
        <ele>189.52</ele>
        <time>2017-10-28T13:46:43Z</time>
      </trkpt>
      <trkpt lat="48.99963" lon="0.20822">
        <ele>189.52</ele>
        <time>2017-10-28T13:46:53Z</time>
      </trkpt>
      <trkpt lat="48.99951" lon="0.20824">
        <ele>190</ele>
        <time>2017-10-28T13:47:06Z</time>
      </trkpt>
      <trkpt lat="48.99935" lon="0.20829">
        <ele>190.48</ele>
        <time>2017-10-28T13:47:23Z</time>
      </trkpt>
      <trkpt lat="48.99921" lon="0.20831">
        <ele>190.48</ele>
        <time>2017-10-28T13:47:35Z</time>
      </trkpt>
      <trkpt lat="48.99909" lon="0.20834">
        <ele>190.48</ele>
        <time>2017-10-28T13:47:45Z</time>
      </trkpt>
      <trkpt lat="48.99898" lon="0.20836">
        <ele>190.96</ele>
        <time>2017-10-28T13:47:56Z</time>
      </trkpt>
      <trkpt lat="48.99887" lon="0.20841">
        <ele>190.96</ele>
        <time>2017-10-28T13:48:06Z</time>
      </trkpt>
      <trkpt lat="48.99878" lon="0.20844">
        <ele>190.96</ele>
        <time>2017-10-28T13:48:15Z</time>
      </trkpt>
      <trkpt lat="48.99867" lon="0.20846">
        <ele>191.44</ele>
        <time>2017-10-28T13:48:25Z</time>
      </trkpt>
      <trkpt lat="48.99857" lon="0.20848">
        <ele>191.44</ele>
        <time>2017-10-28T13:48:34Z</time>
      </trkpt>
      <trkpt lat="48.99847" lon="0.20852">
        <ele>191.92</ele>
        <time>2017-10-28T13:48:44Z</time>
      </trkpt>
      <trkpt lat="48.99836" lon="0.20853">
        <ele>191.92</ele>
        <time>2017-10-28T13:48:54Z</time>
      </trkpt>
      <trkpt lat="48.99825" lon="0.20856">
        <ele>191.92</ele>
        <time>2017-10-28T13:49:04Z</time>
      </trkpt>
      <trkpt lat="48.99815" lon="0.20859">
        <ele>191.92</ele>
        <time>2017-10-28T13:49:13Z</time>
      </trkpt>
      <trkpt lat="48.99804" lon="0.20862">
        <ele>192.4</ele>
        <time>2017-10-28T13:49:23Z</time>
      </trkpt>
      <trkpt lat="48.99793" lon="0.20864">
        <ele>192.4</ele>
        <time>2017-10-28T13:49:34Z</time>
      </trkpt>
      <trkpt lat="48.99781" lon="0.20868">
        <ele>192.4</ele>
        <time>2017-10-28T13:49:45Z</time>
      </trkpt>
      <trkpt lat="48.99769" lon="0.20871">
        <ele>192.4</ele>
        <time>2017-10-28T13:49:54Z</time>
      </trkpt>
      <trkpt lat="48.9976" lon="0.20873">
        <ele>192.88</ele>
        <time>2017-10-28T13:50:03Z</time>
      </trkpt>
      <trkpt lat="48.99749" lon="0.20875">
        <ele>192.88</ele>
        <time>2017-10-28T13:50:13Z</time>
      </trkpt>
      <trkpt lat="48.99739" lon="0.20877">
        <ele>192.88</ele>
        <time>2017-10-28T13:50:22Z</time>
      </trkpt>
      <trkpt lat="48.99729" lon="0.20879">
        <ele>192.88</ele>
        <time>2017-10-28T13:50:31Z</time>
      </trkpt>
      <trkpt lat="48.99719" lon="0.20883">
        <ele>193.36</ele>
        <time>2017-10-28T13:50:40Z</time>
      </trkpt>
      <trkpt lat="48.9971" lon="0.20885">
        <ele>193.36</ele>
        <time>2017-10-28T13:50:50Z</time>
      </trkpt>
      <trkpt lat="48.997" lon="0.20887">
        <ele>193.36</ele>
        <time>2017-10-28T13:51:00Z</time>
      </trkpt>
      <trkpt lat="48.9969" lon="0.20889">
        <ele>193.84</ele>
        <time>2017-10-28T13:51:10Z</time>
      </trkpt>
      <trkpt lat="48.99682" lon="0.20889">
        <ele>194.32</ele>
        <time>2017-10-28T13:52:07Z</time>
      </trkpt>
      <trkpt lat="48.9967" lon="0.20889">
        <ele>194.8</ele>
        <time>2017-10-28T13:52:18Z</time>
      </trkpt>
      <trkpt lat="48.99662" lon="0.20898">
        <ele>194.8</ele>
        <time>2017-10-28T13:52:28Z</time>
      </trkpt>
      <trkpt lat="48.99652" lon="0.20896">
        <ele>194.32</ele>
        <time>2017-10-28T13:52:40Z</time>
      </trkpt>
      <trkpt lat="48.99644" lon="0.20903">
        <ele>194.32</ele>
        <time>2017-10-28T13:52:52Z</time>
      </trkpt>
      <trkpt lat="48.99636" lon="0.20914">
        <ele>194.32</ele>
        <time>2017-10-28T13:53:03Z</time>
      </trkpt>
      <trkpt lat="48.99629" lon="0.20924">
        <ele>194.32</ele>
        <time>2017-10-28T13:53:14Z</time>
      </trkpt>
      <trkpt lat="48.99622" lon="0.20936">
        <ele>194.32</ele>
        <time>2017-10-28T13:53:24Z</time>
      </trkpt>
      <trkpt lat="48.99615" lon="0.20946">
        <ele>194.32</ele>
        <time>2017-10-28T13:53:33Z</time>
      </trkpt>
      <trkpt lat="48.99607" lon="0.20958">
        <ele>194.8</ele>
        <time>2017-10-28T13:53:43Z</time>
      </trkpt>
      <trkpt lat="48.99601" lon="0.2097">
        <ele>194.8</ele>
        <time>2017-10-28T13:53:52Z</time>
      </trkpt>
      <trkpt lat="48.99595" lon="0.20983">
        <ele>194.8</ele>
        <time>2017-10-28T13:54:02Z</time>
      </trkpt>
      <trkpt lat="48.99588" lon="0.20993">
        <ele>195.28</ele>
        <time>2017-10-28T13:54:11Z</time>
      </trkpt>
      <trkpt lat="48.99582" lon="0.21005">
        <ele>194.8</ele>
        <time>2017-10-28T13:54:21Z</time>
      </trkpt>
      <trkpt lat="48.99574" lon="0.21016">
        <ele>195.28</ele>
        <time>2017-10-28T13:54:31Z</time>
      </trkpt>
      <trkpt lat="48.99568" lon="0.21028">
        <ele>195.28</ele>
        <time>2017-10-28T13:54:42Z</time>
      </trkpt>
      <trkpt lat="48.9956" lon="0.21039">
        <ele>195.28</ele>
        <time>2017-10-28T13:54:52Z</time>
      </trkpt>
      <trkpt lat="48.99551" lon="0.21048">
        <ele>195.28</ele>
        <time>2017-10-28T13:55:02Z</time>
      </trkpt>
      <trkpt lat="48.99541" lon="0.21055">
        <ele>195.77</ele>
        <time>2017-10-28T13:55:12Z</time>
      </trkpt>
      <trkpt lat="48.99532" lon="0.2106">
        <ele>195.77</ele>
        <time>2017-10-28T13:55:23Z</time>
      </trkpt>
      <trkpt lat="48.99521" lon="0.21064">
        <ele>196.25</ele>
        <time>2017-10-28T13:55:34Z</time>
      </trkpt>
      <trkpt lat="48.99511" lon="0.21068">
        <ele>196.25</ele>
        <time>2017-10-28T13:55:43Z</time>
      </trkpt>
      <trkpt lat="48.99501" lon="0.21071">
        <ele>196.25</ele>
        <time>2017-10-28T13:55:52Z</time>
      </trkpt>
      <trkpt lat="48.99491" lon="0.21074">
        <ele>195.77</ele>
        <time>2017-10-28T13:56:02Z</time>
      </trkpt>
      <trkpt lat="48.99481" lon="0.21077">
        <ele>195.77</ele>
        <time>2017-10-28T13:56:12Z</time>
      </trkpt>
      <trkpt lat="48.9947" lon="0.21081">
        <ele>195.77</ele>
        <time>2017-10-28T13:56:21Z</time>
      </trkpt>
      <trkpt lat="48.9946" lon="0.21085">
        <ele>195.77</ele>
        <time>2017-10-28T13:56:30Z</time>
      </trkpt>
      <trkpt lat="48.99451" lon="0.21088">
        <ele>195.77</ele>
        <time>2017-10-28T13:56:40Z</time>
      </trkpt>
      <trkpt lat="48.99442" lon="0.21093">
        <ele>195.77</ele>
        <time>2017-10-28T13:56:49Z</time>
      </trkpt>
      <trkpt lat="48.99434" lon="0.211">
        <ele>195.77</ele>
        <time>2017-10-28T13:56:58Z</time>
      </trkpt>
      <trkpt lat="48.99426" lon="0.21108">
        <ele>195.77</ele>
        <time>2017-10-28T13:57:08Z</time>
      </trkpt>
      <trkpt lat="48.99418" lon="0.21117">
        <ele>195.77</ele>
        <time>2017-10-28T13:57:18Z</time>
      </trkpt>
      <trkpt lat="48.99411" lon="0.21127">
        <ele>195.77</ele>
        <time>2017-10-28T13:57:28Z</time>
      </trkpt>
      <trkpt lat="48.99405" lon="0.21136">
        <ele>195.77</ele>
        <time>2017-10-28T13:57:37Z</time>
      </trkpt>
      <trkpt lat="48.99399" lon="0.21146">
        <ele>195.77</ele>
        <time>2017-10-28T13:57:46Z</time>
      </trkpt>
      <trkpt lat="48.99394" lon="0.21156">
        <ele>195.77</ele>
        <time>2017-10-28T13:57:55Z</time>
      </trkpt>
      <trkpt lat="48.99388" lon="0.21168">
        <ele>195.77</ele>
        <time>2017-10-28T13:58:05Z</time>
      </trkpt>
      <trkpt lat="48.99381" lon="0.21183">
        <ele>195.77</ele>
        <time>2017-10-28T13:58:16Z</time>
      </trkpt>
      <trkpt lat="48.99375" lon="0.21196">
        <ele>195.77</ele>
        <time>2017-10-28T13:58:26Z</time>
      </trkpt>
      <trkpt lat="48.9937" lon="0.21209">
        <ele>196.25</ele>
        <time>2017-10-28T13:58:36Z</time>
      </trkpt>
      <trkpt lat="48.99366" lon="0.21219">
        <ele>196.25</ele>
        <time>2017-10-28T13:58:45Z</time>
      </trkpt>
      <trkpt lat="48.9936" lon="0.21232">
        <ele>196.25</ele>
        <time>2017-10-28T13:58:55Z</time>
      </trkpt>
      <trkpt lat="48.99354" lon="0.21244">
        <ele>196.25</ele>
        <time>2017-10-28T13:59:04Z</time>
      </trkpt>
      <trkpt lat="48.99349" lon="0.21256">
        <ele>196.25</ele>
        <time>2017-10-28T13:59:14Z</time>
      </trkpt>
      <trkpt lat="48.99344" lon="0.21268">
        <ele>196.25</ele>
        <time>2017-10-28T13:59:24Z</time>
      </trkpt>
      <trkpt lat="48.99337" lon="0.21281">
        <ele>196.25</ele>
        <time>2017-10-28T13:59:34Z</time>
      </trkpt>
      <trkpt lat="48.99332" lon="0.21293">
        <ele>196.25</ele>
        <time>2017-10-28T13:59:43Z</time>
      </trkpt>
      <trkpt lat="48.99326" lon="0.21305">
        <ele>196.25</ele>
        <time>2017-10-28T13:59:53Z</time>
      </trkpt>
      <trkpt lat="48.99321" lon="0.21317">
        <ele>196.25</ele>
        <time>2017-10-28T14:00:03Z</time>
      </trkpt>
      <trkpt lat="48.99314" lon="0.21328">
        <ele>196.25</ele>
        <time>2017-10-28T14:00:13Z</time>
      </trkpt>
      <trkpt lat="48.99308" lon="0.21339">
        <ele>196.73</ele>
        <time>2017-10-28T14:00:23Z</time>
      </trkpt>
      <trkpt lat="48.993" lon="0.21349">
        <ele>196.73</ele>
        <time>2017-10-28T14:00:33Z</time>
      </trkpt>
      <trkpt lat="48.99293" lon="0.21358">
        <ele>196.73</ele>
        <time>2017-10-28T14:00:42Z</time>
      </trkpt>
      <trkpt lat="48.99286" lon="0.21366">
        <ele>196.73</ele>
        <time>2017-10-28T14:00:51Z</time>
      </trkpt>
      <trkpt lat="48.99278" lon="0.21374">
        <ele>197.21</ele>
        <time>2017-10-28T14:01:00Z</time>
      </trkpt>
      <trkpt lat="48.99271" lon="0.21381">
        <ele>197.69</ele>
        <time>2017-10-28T14:01:11Z</time>
      </trkpt>
      <trkpt lat="48.99262" lon="0.21389">
        <ele>197.69</ele>
        <time>2017-10-28T14:01:22Z</time>
      </trkpt>
      <trkpt lat="48.99253" lon="0.21397">
        <ele>197.69</ele>
        <time>2017-10-28T14:01:31Z</time>
      </trkpt>
      <trkpt lat="48.99244" lon="0.21404">
        <ele>197.69</ele>
        <time>2017-10-28T14:01:40Z</time>
      </trkpt>
      <trkpt lat="48.99234" lon="0.21413">
        <ele>197.69</ele>
        <time>2017-10-28T14:01:48Z</time>
      </trkpt>
      <trkpt lat="48.99225" lon="0.2142">
        <ele>197.69</ele>
        <time>2017-10-28T14:01:55Z</time>
      </trkpt>
      <trkpt lat="48.99218" lon="0.21428">
        <ele>197.69</ele>
        <time>2017-10-28T14:02:02Z</time>
      </trkpt>
      <trkpt lat="48.99209" lon="0.21436">
        <ele>197.69</ele>
        <time>2017-10-28T14:02:10Z</time>
      </trkpt>
      <trkpt lat="48.992" lon="0.21444">
        <ele>197.69</ele>
        <time>2017-10-28T14:02:19Z</time>
      </trkpt>
      <trkpt lat="48.99191" lon="0.21452">
        <ele>197.69</ele>
        <time>2017-10-28T14:02:27Z</time>
      </trkpt>
      <trkpt lat="48.99184" lon="0.21461">
        <ele>197.69</ele>
        <time>2017-10-28T14:02:37Z</time>
      </trkpt>
      <trkpt lat="48.99175" lon="0.21471">
        <ele>197.21</ele>
        <time>2017-10-28T14:02:47Z</time>
      </trkpt>
      <trkpt lat="48.99167" lon="0.21481">
        <ele>197.21</ele>
        <time>2017-10-28T14:02:57Z</time>
      </trkpt>
      <trkpt lat="48.99158" lon="0.2149">
        <ele>197.21</ele>
        <time>2017-10-28T14:03:07Z</time>
      </trkpt>
      <trkpt lat="48.9915" lon="0.21501">
        <ele>197.69</ele>
        <time>2017-10-28T14:03:17Z</time>
      </trkpt>
      <trkpt lat="48.99142" lon="0.21511">
        <ele>197.69</ele>
        <time>2017-10-28T14:03:27Z</time>
      </trkpt>
      <trkpt lat="48.99133" lon="0.21522">
        <ele>197.69</ele>
        <time>2017-10-28T14:03:37Z</time>
      </trkpt>
      <trkpt lat="48.99124" lon="0.21533">
        <ele>198.17</ele>
        <time>2017-10-28T14:03:47Z</time>
      </trkpt>
      <trkpt lat="48.99117" lon="0.21545">
        <ele>198.17</ele>
        <time>2017-10-28T14:03:56Z</time>
      </trkpt>
      <trkpt lat="48.99111" lon="0.21559">
        <ele>198.17</ele>
        <time>2017-10-28T14:04:06Z</time>
      </trkpt>
      <trkpt lat="48.99106" lon="0.21575">
        <ele>198.17</ele>
        <time>2017-10-28T14:04:19Z</time>
      </trkpt>
      <trkpt lat="48.99105" lon="0.21589">
        <ele>198.17</ele>
        <time>2017-10-28T14:07:34Z</time>
      </trkpt>
      <trkpt lat="48.99101" lon="0.21602">
        <ele>198.17</ele>
        <time>2017-10-28T14:07:47Z</time>
      </trkpt>
      <trkpt lat="48.99097" lon="0.21616">
        <ele>198.17</ele>
        <time>2017-10-28T14:08:01Z</time>
      </trkpt>
      <trkpt lat="48.99093" lon="0.21631">
        <ele>198.17</ele>
        <time>2017-10-28T14:08:14Z</time>
      </trkpt>
      <trkpt lat="48.9909" lon="0.21647">
        <ele>198.17</ele>
        <time>2017-10-28T14:08:26Z</time>
      </trkpt>
      <trkpt lat="48.99087" lon="0.21662">
        <ele>198.65</ele>
        <time>2017-10-28T14:08:37Z</time>
      </trkpt>
      <trkpt lat="48.99084" lon="0.21678">
        <ele>198.65</ele>
        <time>2017-10-28T14:08:47Z</time>
      </trkpt>
      <trkpt lat="48.99081" lon="0.21694">
        <ele>198.65</ele>
        <time>2017-10-28T14:08:58Z</time>
      </trkpt>
      <trkpt lat="48.99078" lon="0.21709">
        <ele>198.65</ele>
        <time>2017-10-28T14:09:08Z</time>
      </trkpt>
      <trkpt lat="48.99075" lon="0.21724">
        <ele>198.65</ele>
        <time>2017-10-28T14:09:18Z</time>
      </trkpt>
      <trkpt lat="48.99071" lon="0.21739">
        <ele>198.65</ele>
        <time>2017-10-28T14:09:29Z</time>
      </trkpt>
      <trkpt lat="48.99067" lon="0.21754">
        <ele>198.65</ele>
        <time>2017-10-28T14:09:40Z</time>
      </trkpt>
      <trkpt lat="48.99062" lon="0.21767">
        <ele>198.65</ele>
        <time>2017-10-28T14:09:50Z</time>
      </trkpt>
      <trkpt lat="48.99056" lon="0.21781">
        <ele>198.65</ele>
        <time>2017-10-28T14:10:01Z</time>
      </trkpt>
      <trkpt lat="48.99051" lon="0.21799">
        <ele>198.65</ele>
        <time>2017-10-28T14:10:14Z</time>
      </trkpt>
      <trkpt lat="48.99044" lon="0.21815">
        <ele>198.65</ele>
        <time>2017-10-28T14:10:26Z</time>
      </trkpt>
      <trkpt lat="48.99038" lon="0.21829">
        <ele>198.65</ele>
        <time>2017-10-28T14:10:36Z</time>
      </trkpt>
      <trkpt lat="48.99031" lon="0.21842">
        <ele>198.65</ele>
        <time>2017-10-28T14:10:47Z</time>
      </trkpt>
      <trkpt lat="48.99025" lon="0.21854">
        <ele>198.65</ele>
        <time>2017-10-28T14:10:57Z</time>
      </trkpt>
      <trkpt lat="48.9902" lon="0.21867">
        <ele>198.65</ele>
        <time>2017-10-28T14:11:07Z</time>
      </trkpt>
      <trkpt lat="48.99014" lon="0.21879">
        <ele>198.65</ele>
        <time>2017-10-28T14:11:17Z</time>
      </trkpt>
      <trkpt lat="48.99009" lon="0.21892">
        <ele>198.65</ele>
        <time>2017-10-28T14:11:27Z</time>
      </trkpt>
      <trkpt lat="48.99004" lon="0.21904">
        <ele>198.65</ele>
        <time>2017-10-28T14:11:37Z</time>
      </trkpt>
      <trkpt lat="48.98999" lon="0.21915">
        <ele>198.65</ele>
        <time>2017-10-28T14:11:47Z</time>
      </trkpt>
      <trkpt lat="48.98993" lon="0.21928">
        <ele>198.65</ele>
        <time>2017-10-28T14:11:58Z</time>
      </trkpt>
      <trkpt lat="48.98987" lon="0.2194">
        <ele>198.65</ele>
        <time>2017-10-28T14:12:08Z</time>
      </trkpt>
      <trkpt lat="48.98982" lon="0.21953">
        <ele>198.65</ele>
        <time>2017-10-28T14:12:18Z</time>
      </trkpt>
      <trkpt lat="48.98976" lon="0.21966">
        <ele>198.65</ele>
        <time>2017-10-28T14:12:28Z</time>
      </trkpt>
      <trkpt lat="48.98971" lon="0.21978">
        <ele>198.65</ele>
        <time>2017-10-28T14:12:38Z</time>
      </trkpt>
      <trkpt lat="48.98966" lon="0.2199">
        <ele>198.17</ele>
        <time>2017-10-28T14:12:49Z</time>
      </trkpt>
      <trkpt lat="48.98961" lon="0.22004">
        <ele>198.65</ele>
        <time>2017-10-28T14:13:02Z</time>
      </trkpt>
      <trkpt lat="48.98955" lon="0.22016">
        <ele>198.65</ele>
        <time>2017-10-28T14:13:11Z</time>
      </trkpt>
      <trkpt lat="48.98949" lon="0.22028">
        <ele>198.65</ele>
        <time>2017-10-28T14:13:19Z</time>
      </trkpt>
      <trkpt lat="48.98944" lon="0.2204">
        <ele>198.65</ele>
        <time>2017-10-28T14:13:27Z</time>
      </trkpt>
      <trkpt lat="48.98939" lon="0.22051">
        <ele>198.65</ele>
        <time>2017-10-28T14:13:36Z</time>
      </trkpt>
      <trkpt lat="48.98933" lon="0.22064">
        <ele>198.65</ele>
        <time>2017-10-28T14:13:46Z</time>
      </trkpt>
      <trkpt lat="48.98926" lon="0.22073">
        <ele>199.13</ele>
        <time>2017-10-28T14:13:55Z</time>
      </trkpt>
      <trkpt lat="48.98916" lon="0.22078">
        <ele>199.13</ele>
        <time>2017-10-28T14:14:03Z</time>
      </trkpt>
      <trkpt lat="48.98906" lon="0.22078">
        <ele>199.61</ele>
        <time>2017-10-28T14:14:12Z</time>
      </trkpt>
      <trkpt lat="48.98896" lon="0.22076">
        <ele>200.09</ele>
        <time>2017-10-28T14:14:20Z</time>
      </trkpt>
      <trkpt lat="48.98887" lon="0.22073">
        <ele>200.57</ele>
        <time>2017-10-28T14:14:28Z</time>
      </trkpt>
      <trkpt lat="48.98876" lon="0.2207">
        <ele>200.57</ele>
        <time>2017-10-28T14:14:37Z</time>
      </trkpt>
      <trkpt lat="48.98866" lon="0.22068">
        <ele>200.57</ele>
        <time>2017-10-28T14:14:46Z</time>
      </trkpt>
      <trkpt lat="48.98856" lon="0.22066">
        <ele>200.57</ele>
        <time>2017-10-28T14:14:55Z</time>
      </trkpt>
      <trkpt lat="48.98847" lon="0.22064">
        <ele>200.57</ele>
        <time>2017-10-28T14:15:03Z</time>
      </trkpt>
      <trkpt lat="48.98837" lon="0.22063">
        <ele>200.57</ele>
        <time>2017-10-28T14:15:12Z</time>
      </trkpt>
      <trkpt lat="48.98827" lon="0.22062">
        <ele>201.05</ele>
        <time>2017-10-28T14:15:21Z</time>
      </trkpt>
      <trkpt lat="48.98817" lon="0.22061">
        <ele>201.05</ele>
        <time>2017-10-28T14:15:29Z</time>
      </trkpt>
      <trkpt lat="48.98807" lon="0.22061">
        <ele>201.05</ele>
        <time>2017-10-28T14:15:38Z</time>
      </trkpt>
      <trkpt lat="48.98797" lon="0.2206">
        <ele>201.05</ele>
        <time>2017-10-28T14:15:47Z</time>
      </trkpt>
      <trkpt lat="48.98787" lon="0.22059">
        <ele>201.05</ele>
        <time>2017-10-28T14:15:55Z</time>
      </trkpt>
      <trkpt lat="48.98777" lon="0.22059">
        <ele>201.05</ele>
        <time>2017-10-28T14:16:04Z</time>
      </trkpt>
      <trkpt lat="48.98768" lon="0.22057">
        <ele>201.05</ele>
        <time>2017-10-28T14:16:12Z</time>
      </trkpt>
      <trkpt lat="48.98758" lon="0.22056">
        <ele>201.05</ele>
        <time>2017-10-28T14:16:20Z</time>
      </trkpt>
      <trkpt lat="48.98749" lon="0.22055">
        <ele>201.05</ele>
        <time>2017-10-28T14:16:28Z</time>
      </trkpt>
      <trkpt lat="48.98739" lon="0.22056">
        <ele>201.05</ele>
        <time>2017-10-28T14:16:36Z</time>
      </trkpt>
      <trkpt lat="48.98729" lon="0.22056">
        <ele>201.53</ele>
        <time>2017-10-28T14:16:45Z</time>
      </trkpt>
      <trkpt lat="48.98718" lon="0.22054">
        <ele>201.53</ele>
        <time>2017-10-28T14:16:54Z</time>
      </trkpt>
      <trkpt lat="48.98708" lon="0.22054">
        <ele>201.53</ele>
        <time>2017-10-28T14:17:03Z</time>
      </trkpt>
      <trkpt lat="48.98699" lon="0.22053">
        <ele>201.53</ele>
        <time>2017-10-28T14:17:11Z</time>
      </trkpt>
      <trkpt lat="48.98688" lon="0.22053">
        <ele>201.53</ele>
        <time>2017-10-28T14:17:20Z</time>
      </trkpt>
      <trkpt lat="48.98679" lon="0.22052">
        <ele>201.53</ele>
        <time>2017-10-28T14:17:28Z</time>
      </trkpt>
      <trkpt lat="48.98669" lon="0.22051">
        <ele>201.53</ele>
        <time>2017-10-28T14:17:36Z</time>
      </trkpt>
      <trkpt lat="48.9866" lon="0.22051">
        <ele>201.53</ele>
        <time>2017-10-28T14:17:44Z</time>
      </trkpt>
      <trkpt lat="48.9865" lon="0.22051">
        <ele>202.01</ele>
        <time>2017-10-28T14:17:52Z</time>
      </trkpt>
      <trkpt lat="48.98641" lon="0.22053">
        <ele>202.49</ele>
        <time>2017-10-28T14:18:00Z</time>
      </trkpt>
      <trkpt lat="48.98631" lon="0.22054">
        <ele>202.49</ele>
        <time>2017-10-28T14:18:08Z</time>
      </trkpt>
      <trkpt lat="48.98621" lon="0.22057">
        <ele>202.49</ele>
        <time>2017-10-28T14:18:16Z</time>
      </trkpt>
      <trkpt lat="48.98611" lon="0.2206">
        <ele>202.49</ele>
        <time>2017-10-28T14:18:25Z</time>
      </trkpt>
      <trkpt lat="48.98601" lon="0.22062">
        <ele>202.49</ele>
        <time>2017-10-28T14:18:33Z</time>
      </trkpt>
      <trkpt lat="48.98591" lon="0.22064">
        <ele>202.49</ele>
        <time>2017-10-28T14:18:42Z</time>
      </trkpt>
      <trkpt lat="48.98581" lon="0.22067">
        <ele>202.49</ele>
        <time>2017-10-28T14:18:51Z</time>
      </trkpt>
      <trkpt lat="48.98572" lon="0.22068">
        <ele>202.49</ele>
        <time>2017-10-28T14:18:59Z</time>
      </trkpt>
      <trkpt lat="48.98561" lon="0.22071">
        <ele>201.05</ele>
        <time>2017-10-28T14:19:08Z</time>
      </trkpt>
      <trkpt lat="48.9855" lon="0.22073">
        <ele>201.05</ele>
        <time>2017-10-28T14:19:17Z</time>
      </trkpt>
      <trkpt lat="48.98539" lon="0.22075">
        <ele>201.05</ele>
        <time>2017-10-28T14:19:27Z</time>
      </trkpt>
      <trkpt lat="48.98528" lon="0.22077">
        <ele>201.05</ele>
        <time>2017-10-28T14:19:36Z</time>
      </trkpt>
      <trkpt lat="48.98517" lon="0.22079">
        <ele>200.57</ele>
        <time>2017-10-28T14:19:45Z</time>
      </trkpt>
      <trkpt lat="48.98507" lon="0.22082">
        <ele>200.57</ele>
        <time>2017-10-28T14:19:54Z</time>
      </trkpt>
      <trkpt lat="48.98496" lon="0.22084">
        <ele>200.57</ele>
        <time>2017-10-28T14:20:03Z</time>
      </trkpt>
      <trkpt lat="48.98486" lon="0.22085">
        <ele>200.57</ele>
        <time>2017-10-28T14:20:13Z</time>
      </trkpt>
      <trkpt lat="48.98475" lon="0.22087">
        <ele>200.09</ele>
        <time>2017-10-28T14:20:23Z</time>
      </trkpt>
      <trkpt lat="48.98465" lon="0.22089">
        <ele>200.09</ele>
        <time>2017-10-28T14:20:32Z</time>
      </trkpt>
      <trkpt lat="48.98455" lon="0.22091">
        <ele>199.61</ele>
        <time>2017-10-28T14:20:42Z</time>
      </trkpt>
      <trkpt lat="48.98443" lon="0.22093">
        <ele>199.61</ele>
        <time>2017-10-28T14:20:53Z</time>
      </trkpt>
      <trkpt lat="48.98431" lon="0.22099">
        <ele>199.13</ele>
        <time>2017-10-28T14:21:06Z</time>
      </trkpt>
      <trkpt lat="48.98418" lon="0.22102">
        <ele>199.13</ele>
        <time>2017-10-28T14:23:12Z</time>
      </trkpt>
      <trkpt lat="48.98406" lon="0.22101">
        <ele>199.13</ele>
        <time>2017-10-28T14:23:28Z</time>
      </trkpt>
      <trkpt lat="48.98396" lon="0.22101">
        <ele>199.13</ele>
        <time>2017-10-28T14:23:42Z</time>
      </trkpt>
      <trkpt lat="48.98385" lon="0.22101">
        <ele>198.65</ele>
        <time>2017-10-28T14:24:12Z</time>
      </trkpt>
      <trkpt lat="48.98376" lon="0.22103">
        <ele>198.65</ele>
        <time>2017-10-28T14:24:22Z</time>
      </trkpt>
      <trkpt lat="48.98368" lon="0.22102">
        <ele>198.65</ele>
        <time>2017-10-28T14:24:43Z</time>
      </trkpt>
      <trkpt lat="48.98359" lon="0.22102">
        <ele>198.65</ele>
        <time>2017-10-28T14:24:53Z</time>
      </trkpt>
      <trkpt lat="48.9835" lon="0.22103">
        <ele>198.65</ele>
        <time>2017-10-28T14:25:01Z</time>
      </trkpt>
      <trkpt lat="48.98339" lon="0.22105">
        <ele>198.17</ele>
        <time>2017-10-28T14:25:09Z</time>
      </trkpt>
      <trkpt lat="48.98327" lon="0.22109">
        <ele>198.17</ele>
        <time>2017-10-28T14:25:17Z</time>
      </trkpt>
      <trkpt lat="48.98317" lon="0.22115">
        <ele>198.17</ele>
        <time>2017-10-28T14:25:26Z</time>
      </trkpt>
      <trkpt lat="48.98306" lon="0.22122">
        <ele>198.17</ele>
        <time>2017-10-28T14:25:35Z</time>
      </trkpt>
      <trkpt lat="48.98296" lon="0.22127">
        <ele>198.17</ele>
        <time>2017-10-28T14:25:43Z</time>
      </trkpt>
      <trkpt lat="48.98285" lon="0.2213">
        <ele>198.17</ele>
        <time>2017-10-28T14:25:52Z</time>
      </trkpt>
      <trkpt lat="48.98275" lon="0.2213">
        <ele>198.17</ele>
        <time>2017-10-28T14:26:01Z</time>
      </trkpt>
      <trkpt lat="48.98265" lon="0.2213">
        <ele>198.17</ele>
        <time>2017-10-28T14:26:10Z</time>
      </trkpt>
      <trkpt lat="48.98254" lon="0.2213">
        <ele>198.17</ele>
        <time>2017-10-28T14:26:20Z</time>
      </trkpt>
      <trkpt lat="48.98243" lon="0.22131">
        <ele>198.17</ele>
        <time>2017-10-28T14:26:29Z</time>
      </trkpt>
      <trkpt lat="48.98234" lon="0.2214">
        <ele>198.17</ele>
        <time>2017-10-28T14:26:39Z</time>
      </trkpt>
      <trkpt lat="48.98234" lon="0.22152">
        <ele>198.17</ele>
        <time>2017-10-28T14:26:49Z</time>
      </trkpt>
      <trkpt lat="48.98236" lon="0.22166">
        <ele>198.17</ele>
        <time>2017-10-28T14:26:59Z</time>
      </trkpt>
      <trkpt lat="48.98239" lon="0.22181">
        <ele>198.17</ele>
        <time>2017-10-28T14:27:11Z</time>
      </trkpt>
      <trkpt lat="48.98241" lon="0.22199">
        <ele>198.17</ele>
        <time>2017-10-28T14:27:24Z</time>
      </trkpt>
      <trkpt lat="48.98242" lon="0.22214">
        <ele>198.17</ele>
        <time>2017-10-28T14:27:36Z</time>
      </trkpt>
      <trkpt lat="48.98242" lon="0.22231">
        <ele>198.17</ele>
        <time>2017-10-28T14:28:06Z</time>
      </trkpt>
      <trkpt lat="48.98231" lon="0.22237">
        <ele>198.17</ele>
        <time>2017-10-28T14:28:30Z</time>
      </trkpt>
      <trkpt lat="48.98219" lon="0.22241">
        <ele>199.13</ele>
        <time>2017-10-28T14:28:41Z</time>
      </trkpt>
      <trkpt lat="48.98209" lon="0.22247">
        <ele>199.61</ele>
        <time>2017-10-28T14:28:52Z</time>
      </trkpt>
      <trkpt lat="48.98198" lon="0.22249">
        <ele>199.61</ele>
        <time>2017-10-28T14:29:02Z</time>
      </trkpt>
      <trkpt lat="48.98187" lon="0.22252">
        <ele>199.61</ele>
        <time>2017-10-28T14:29:12Z</time>
      </trkpt>
      <trkpt lat="48.98174" lon="0.22258">
        <ele>199.61</ele>
        <time>2017-10-28T14:29:25Z</time>
      </trkpt>
      <trkpt lat="48.98161" lon="0.22262">
        <ele>199.61</ele>
        <time>2017-10-28T14:29:57Z</time>
      </trkpt>
      <trkpt lat="48.9815" lon="0.22264">
        <ele>199.61</ele>
        <time>2017-10-28T14:30:08Z</time>
      </trkpt>
      <trkpt lat="48.9814" lon="0.22268">
        <ele>199.61</ele>
        <time>2017-10-28T14:30:19Z</time>
      </trkpt>
      <trkpt lat="48.9813" lon="0.22266">
        <ele>199.61</ele>
        <time>2017-10-28T14:30:31Z</time>
      </trkpt>
      <trkpt lat="48.98119" lon="0.22264">
        <ele>198.65</ele>
        <time>2017-10-28T14:30:43Z</time>
      </trkpt>
      <trkpt lat="48.98105" lon="0.22264">
        <ele>198.65</ele>
        <time>2017-10-28T14:31:03Z</time>
      </trkpt>
      <trkpt lat="48.98093" lon="0.2227">
        <ele>198.65</ele>
        <time>2017-10-28T14:31:16Z</time>
      </trkpt>
      <trkpt lat="48.98082" lon="0.22279">
        <ele>198.17</ele>
        <time>2017-10-28T14:31:28Z</time>
      </trkpt>
      <trkpt lat="48.98072" lon="0.22288">
        <ele>198.17</ele>
        <time>2017-10-28T14:31:41Z</time>
      </trkpt>
      <trkpt lat="48.98062" lon="0.22297">
        <ele>198.17</ele>
        <time>2017-10-28T14:32:02Z</time>
      </trkpt>
      <trkpt lat="48.98101" lon="0.22337">
        <ele>198.17</ele>
        <time>2017-10-28T14:33:38Z</time>
      </trkpt>
      <trkpt lat="48.98108" lon="0.22353">
        <ele>198.17</ele>
        <time>2017-10-28T14:33:50Z</time>
      </trkpt>
      <trkpt lat="48.98112" lon="0.22369">
        <ele>197.69</ele>
        <time>2017-10-28T14:34:03Z</time>
      </trkpt>
      <trkpt lat="48.98117" lon="0.22406">
        <ele>199.61</ele>
        <time>2017-10-28T14:34:32Z</time>
      </trkpt>
      <trkpt lat="48.98118" lon="0.22423">
        <ele>199.61</ele>
        <time>2017-10-28T14:34:44Z</time>
      </trkpt>
      <trkpt lat="48.98121" lon="0.22441">
        <ele>200.09</ele>
        <time>2017-10-28T14:34:58Z</time>
      </trkpt>
      <trkpt lat="48.98123" lon="0.22461">
        <ele>200.09</ele>
        <time>2017-10-28T14:35:15Z</time>
      </trkpt>
      <trkpt lat="48.98125" lon="0.22477">
        <ele>200.09</ele>
        <time>2017-10-28T14:35:27Z</time>
      </trkpt>
      <trkpt lat="48.98127" lon="0.22495">
        <ele>200.09</ele>
        <time>2017-10-28T14:35:42Z</time>
      </trkpt>
      <trkpt lat="48.98129" lon="0.22512">
        <ele>200.09</ele>
        <time>2017-10-28T14:35:54Z</time>
      </trkpt>
      <trkpt lat="48.98132" lon="0.22529">
        <ele>200.09</ele>
        <time>2017-10-28T14:36:08Z</time>
      </trkpt>
      <trkpt lat="48.98135" lon="0.22545">
        <ele>200.57</ele>
        <time>2017-10-28T14:36:20Z</time>
      </trkpt>
      <trkpt lat="48.98139" lon="0.22561">
        <ele>200.57</ele>
        <time>2017-10-28T14:36:32Z</time>
      </trkpt>
      <trkpt lat="48.98144" lon="0.22574">
        <ele>201.05</ele>
        <time>2017-10-28T14:37:30Z</time>
      </trkpt>
      <trkpt lat="48.98147" lon="0.22598">
        <ele>201.05</ele>
        <time>2017-10-28T14:37:43Z</time>
      </trkpt>
      <trkpt lat="48.9815" lon="0.22619">
        <ele>201.05</ele>
        <time>2017-10-28T14:37:54Z</time>
      </trkpt>
      <trkpt lat="48.98152" lon="0.22638">
        <ele>201.53</ele>
        <time>2017-10-28T14:38:02Z</time>
      </trkpt>
      <trkpt lat="48.98155" lon="0.22656">
        <ele>201.53</ele>
        <time>2017-10-28T14:38:10Z</time>
      </trkpt>
      <trkpt lat="48.98157" lon="0.22674">
        <ele>201.53</ele>
        <time>2017-10-28T14:38:18Z</time>
      </trkpt>
      <trkpt lat="48.98162" lon="0.22691">
        <ele>202.01</ele>
        <time>2017-10-28T14:38:26Z</time>
      </trkpt>
      <trkpt lat="48.98167" lon="0.22708">
        <ele>202.01</ele>
        <time>2017-10-28T14:38:35Z</time>
      </trkpt>
      <trkpt lat="48.98172" lon="0.22725">
        <ele>202.01</ele>
        <time>2017-10-28T14:38:43Z</time>
      </trkpt>
      <trkpt lat="48.9818" lon="0.22737">
        <ele>202.01</ele>
        <time>2017-10-28T14:38:51Z</time>
      </trkpt>
      <trkpt lat="48.98187" lon="0.22751">
        <ele>202.01</ele>
        <time>2017-10-28T14:39:02Z</time>
      </trkpt>
      <trkpt lat="48.9819" lon="0.22769">
        <ele>202.01</ele>
        <time>2017-10-28T14:39:24Z</time>
      </trkpt>
      <trkpt lat="48.9819" lon="0.22786">
        <ele>202.01</ele>
        <time>2017-10-28T14:39:34Z</time>
      </trkpt>
      <trkpt lat="48.98192" lon="0.22806">
        <ele>202.01</ele>
        <time>2017-10-28T14:39:47Z</time>
      </trkpt>
      <trkpt lat="48.98193" lon="0.22825">
        <ele>202.01</ele>
        <time>2017-10-28T14:39:58Z</time>
      </trkpt>
      <trkpt lat="48.98197" lon="0.22845">
        <ele>202.49</ele>
        <time>2017-10-28T14:40:09Z</time>
      </trkpt>
      <trkpt lat="48.982" lon="0.22864">
        <ele>202.49</ele>
        <time>2017-10-28T14:40:19Z</time>
      </trkpt>
      <trkpt lat="48.98204" lon="0.22886">
        <ele>203.46</ele>
        <time>2017-10-28T14:43:24Z</time>
      </trkpt>
      <trkpt lat="48.98204" lon="0.22904">
        <ele>203.46</ele>
        <time>2017-10-28T14:43:39Z</time>
      </trkpt>
      <trkpt lat="48.98208" lon="0.22921">
        <ele>203.46</ele>
        <time>2017-10-28T14:43:57Z</time>
      </trkpt>
      <trkpt lat="48.98217" lon="0.22929">
        <ele>203.46</ele>
        <time>2017-10-28T14:44:22Z</time>
      </trkpt>
      <trkpt lat="48.98229" lon="0.22951">
        <ele>203.94</ele>
        <time>2017-10-28T14:45:09Z</time>
      </trkpt>
      <trkpt lat="48.98235" lon="0.22963">
        <ele>203.94</ele>
        <time>2017-10-28T14:45:36Z</time>
      </trkpt>
      <trkpt lat="48.98243" lon="0.22955">
        <ele>204.42</ele>
        <time>2017-10-28T14:45:50Z</time>
      </trkpt>
      <trkpt lat="48.98237" lon="0.22951">
        <ele>204.42</ele>
        <time>2017-10-28T14:46:17Z</time>
      </trkpt>
      <trkpt lat="48.98228" lon="0.22949">
        <ele>204.42</ele>
        <time>2017-10-28T14:46:29Z</time>
      </trkpt>
      <trkpt lat="48.98221" lon="0.22934">
        <ele>204.42</ele>
        <time>2017-10-28T14:49:13Z</time>
      </trkpt>
      <trkpt lat="48.98211" lon="0.22935">
        <ele>203.94</ele>
        <time>2017-10-28T14:50:14Z</time>
      </trkpt>
      <trkpt lat="48.98204" lon="0.22915">
        <ele>203.94</ele>
        <time>2017-10-28T14:52:40Z</time>
      </trkpt>
      <trkpt lat="48.98202" lon="0.22899">
        <ele>203.94</ele>
        <time>2017-10-28T14:53:03Z</time>
      </trkpt>
      <trkpt lat="48.982" lon="0.22885">
        <ele>203.94</ele>
        <time>2017-10-28T14:53:15Z</time>
      </trkpt>
      <trkpt lat="48.98199" lon="0.22871">
        <ele>203.94</ele>
        <time>2017-10-28T14:53:27Z</time>
      </trkpt>
      <trkpt lat="48.98198" lon="0.22857">
        <ele>203.94</ele>
        <time>2017-10-28T14:53:39Z</time>
      </trkpt>
      <trkpt lat="48.98196" lon="0.22837">
        <ele>203.94</ele>
        <time>2017-10-28T14:54:00Z</time>
      </trkpt>
      <trkpt lat="48.98193" lon="0.22818">
        <ele>203.94</ele>
        <time>2017-10-28T14:54:15Z</time>
      </trkpt>
      <trkpt lat="48.98191" lon="0.22797">
        <ele>203.94</ele>
        <time>2017-10-28T14:54:27Z</time>
      </trkpt>
      <trkpt lat="48.9819" lon="0.22781">
        <ele>203.46</ele>
        <time>2017-10-28T14:54:39Z</time>
      </trkpt>
      <trkpt lat="48.9819" lon="0.22763">
        <ele>202.98</ele>
        <time>2017-10-28T14:54:51Z</time>
      </trkpt>
      <trkpt lat="48.98193" lon="0.22745">
        <ele>202.98</ele>
        <time>2017-10-28T14:55:03Z</time>
      </trkpt>
      <trkpt lat="48.98199" lon="0.22726">
        <ele>202.98</ele>
        <time>2017-10-28T14:55:16Z</time>
      </trkpt>
      <trkpt lat="48.98208" lon="0.22711">
        <ele>202.98</ele>
        <time>2017-10-28T14:55:28Z</time>
      </trkpt>
      <trkpt lat="48.98219" lon="0.22702">
        <ele>202.49</ele>
        <time>2017-10-28T14:55:46Z</time>
      </trkpt>
      <trkpt lat="48.98228" lon="0.22688">
        <ele>202.98</ele>
        <time>2017-10-28T14:55:59Z</time>
      </trkpt>
      <trkpt lat="48.98235" lon="0.22679">
        <ele>202.49</ele>
        <time>2017-10-28T14:56:11Z</time>
      </trkpt>
      <trkpt lat="48.98242" lon="0.22669">
        <ele>202.01</ele>
        <time>2017-10-28T14:56:22Z</time>
      </trkpt>
      <trkpt lat="48.98249" lon="0.22658">
        <ele>202.01</ele>
        <time>2017-10-28T14:56:32Z</time>
      </trkpt>
      <trkpt lat="48.98257" lon="0.22648">
        <ele>202.01</ele>
        <time>2017-10-28T14:56:42Z</time>
      </trkpt>
      <trkpt lat="48.98265" lon="0.2264">
        <ele>202.01</ele>
        <time>2017-10-28T14:56:52Z</time>
      </trkpt>
      <trkpt lat="48.98274" lon="0.22633">
        <ele>202.01</ele>
        <time>2017-10-28T14:57:07Z</time>
      </trkpt>
      <trkpt lat="48.98283" lon="0.22628">
        <ele>202.01</ele>
        <time>2017-10-28T14:57:18Z</time>
      </trkpt>
      <trkpt lat="48.98293" lon="0.22624">
        <ele>202.01</ele>
        <time>2017-10-28T14:57:30Z</time>
      </trkpt>
      <trkpt lat="48.98297" lon="0.22612">
        <ele>202.98</ele>
        <time>2017-10-28T14:57:48Z</time>
      </trkpt>
      <trkpt lat="48.98299" lon="0.22604">
        <ele>202.98</ele>
        <time>2017-10-28T14:58:46Z</time>
      </trkpt>
      <trkpt lat="48.98298" lon="0.22588">
        <ele>202.98</ele>
        <time>2017-10-28T14:58:56Z</time>
      </trkpt>
      <trkpt lat="48.98296" lon="0.22572">
        <ele>202.98</ele>
        <time>2017-10-28T14:59:07Z</time>
      </trkpt>
      <trkpt lat="48.98295" lon="0.22575">
        <ele>202.98</ele>
        <time>2017-10-28T15:00:09Z</time>
      </trkpt>
      <trkpt lat="48.98296" lon="0.22576">
        <ele>202.01</ele>
        <time>2017-10-28T15:04:35Z</time>
      </trkpt>
      <trkpt lat="48.98301" lon="0.22593">
        <ele>200.09</ele>
        <time>2017-10-28T15:05:09Z</time>
      </trkpt>
      <trkpt lat="48.98312" lon="0.22605">
        <ele>201.53</ele>
        <time>2017-10-28T15:05:12Z</time>
      </trkpt>
      <trkpt lat="48.98318" lon="0.22615">
        <ele>201.53</ele>
        <time>2017-10-28T15:05:14Z</time>
      </trkpt>
      <trkpt lat="48.98325" lon="0.22625">
        <ele>201.53</ele>
        <time>2017-10-28T15:05:19Z</time>
      </trkpt>
      <trkpt lat="48.98334" lon="0.2263">
        <ele>202.49</ele>
        <time>2017-10-28T15:05:21Z</time>
      </trkpt>
      <trkpt lat="48.98346" lon="0.22635">
        <ele>202.49</ele>
        <time>2017-10-28T15:05:23Z</time>
      </trkpt>
      <trkpt lat="48.98362" lon="0.22642">
        <ele>202.49</ele>
        <time>2017-10-28T15:05:25Z</time>
      </trkpt>
      <trkpt lat="48.9837" lon="0.22648">
        <ele>202.49</ele>
        <time>2017-10-28T15:05:26Z</time>
      </trkpt>
      <trkpt lat="48.98381" lon="0.22656">
        <ele>203.46</ele>
        <time>2017-10-28T15:05:27Z</time>
      </trkpt>
      <trkpt lat="48.98398" lon="0.22668">
        <ele>203.46</ele>
        <time>2017-10-28T15:05:29Z</time>
      </trkpt>
    </trkseg>
  </trk>
</gpx>